<?xml version="1.0" encoding="UTF-8" standalone="no" ?>
<gpx xmlns="http://www.topografix.com/GPX/1/1" xmlns:xsi="http://www.w3.org/2001/XMLSchema-instance" xsi:schemaLocation="http://www.topografix.com/GPX/1/1 http://www.topografix.com/GPX/1/1/gpx.xsd" version="1.1" creator="VisuGPX - https://www.visugpx.com">
  <metadata>
    <name>Villefranche-de-Conflent, redoute d'en Bullas, Corneilla-de-Conflent, Carrière de Badebany</name>
    <desc><![CDATA[TOPO sur notre site:
http://randonnees-pyrenees-orientales.e-monsite.com/pages/pyrenees-orientales/conflent-bas/villefranche-de-conflent-corneilla-de-conflent-carriere-de-badebany.html]]></desc>
  </metadata>
  <trk>
    <name><![CDATA[6010807-Villefranche de Conflent, le circuit des minerais]]></name>
    <extensions>
      <line xmlns="http://www.topografix.com/GPX/gpx_style/0/2">
        <color>0000FF</color>
        <width>4</width>
      </line>
    </extensions>
    <trkseg>
      <trkpt lat="42.58438" lon="2.37083">
        <ele>449</ele>
        <time>2022-07-05T09:54:23Z</time>
      </trkpt>
      <trkpt lat="42.58445" lon="2.37087">
        <ele>450</ele>
        <time>2022-07-05T09:54:33Z</time>
      </trkpt>
      <trkpt lat="42.58453" lon="2.37087">
        <ele>450</ele>
        <time>2022-07-05T09:54:44Z</time>
      </trkpt>
      <trkpt lat="42.58449" lon="2.37087">
        <ele>450</ele>
        <time>2022-07-05T09:54:49Z</time>
      </trkpt>
      <trkpt lat="42.58446" lon="2.3709">
        <ele>451</ele>
        <time>2022-07-05T09:54:54Z</time>
      </trkpt>
      <trkpt lat="42.5844" lon="2.37089">
        <ele>451</ele>
        <time>2022-07-05T09:55:02Z</time>
      </trkpt>
      <trkpt lat="42.58437" lon="2.37093">
        <ele>452</ele>
        <time>2022-07-05T09:55:08Z</time>
      </trkpt>
      <trkpt lat="42.58431" lon="2.37092">
        <ele>452</ele>
        <time>2022-07-05T09:55:16Z</time>
      </trkpt>
      <trkpt lat="42.58429" lon="2.37087">
        <ele>450</ele>
        <time>2022-07-05T09:55:21Z</time>
      </trkpt>
      <trkpt lat="42.58434" lon="2.37089">
        <ele>451</ele>
        <time>2022-07-05T09:55:28Z</time>
      </trkpt>
      <trkpt lat="42.58437" lon="2.37076">
        <ele>449</ele>
        <time>2022-07-05T09:55:42Z</time>
      </trkpt>
      <trkpt lat="42.58441" lon="2.37073">
        <ele>450</ele>
        <time>2022-07-05T09:55:48Z</time>
      </trkpt>
      <trkpt lat="42.58459" lon="2.37073">
        <ele>449</ele>
        <time>2022-07-05T09:56:12Z</time>
      </trkpt>
      <trkpt lat="42.58528" lon="2.37058">
        <ele>451</ele>
        <time>2022-07-05T09:57:45Z</time>
      </trkpt>
      <trkpt lat="42.58575" lon="2.37056">
        <ele>452</ele>
        <time>2022-07-05T09:58:48Z</time>
      </trkpt>
      <trkpt lat="42.58594" lon="2.37052">
        <ele>453</ele>
        <time>2022-07-05T09:59:14Z</time>
      </trkpt>
      <trkpt lat="42.58616" lon="2.37043">
        <ele>453</ele>
        <time>2022-07-05T09:59:44Z</time>
      </trkpt>
      <trkpt lat="42.58641" lon="2.37029">
        <ele>450</ele>
        <time>2022-07-05T10:00:20Z</time>
      </trkpt>
      <trkpt lat="42.58653" lon="2.36989">
        <ele>441</ele>
        <time>2022-07-05T10:01:03Z</time>
      </trkpt>
      <trkpt lat="42.58667" lon="2.36984">
        <ele>439</ele>
        <time>2022-07-05T10:01:22Z</time>
      </trkpt>
      <trkpt lat="42.58672" lon="2.36989">
        <ele>439</ele>
        <time>2022-07-05T10:01:30Z</time>
      </trkpt>
      <trkpt lat="42.58683" lon="2.36983">
        <ele>438</ele>
        <time>2022-07-05T10:01:46Z</time>
      </trkpt>
      <trkpt lat="42.58702" lon="2.3699">
        <ele>437</ele>
        <time>2022-07-05T10:02:12Z</time>
      </trkpt>
      <trkpt lat="42.58721" lon="2.3699">
        <ele>436</ele>
        <time>2022-07-05T10:02:38Z</time>
      </trkpt>
      <trkpt lat="42.58767" lon="2.3702">
        <ele>439</ele>
        <time>2022-07-05T10:03:46Z</time>
      </trkpt>
      <trkpt lat="42.58777" lon="2.37041">
        <ele>444</ele>
        <time>2022-07-05T10:04:10Z</time>
      </trkpt>
      <trkpt lat="42.58802" lon="2.37067">
        <ele>445</ele>
        <time>2022-07-05T10:04:52Z</time>
      </trkpt>
      <trkpt lat="42.58807" lon="2.37082">
        <ele>447</ele>
        <time>2022-07-05T10:05:09Z</time>
      </trkpt>
      <trkpt lat="42.58827" lon="2.37095">
        <ele>445</ele>
        <time>2022-07-05T10:05:38Z</time>
      </trkpt>
      <trkpt lat="42.58849" lon="2.37114">
        <ele>447</ele>
        <time>2022-07-05T10:06:13Z</time>
      </trkpt>
      <trkpt lat="42.58865" lon="2.37138">
        <ele>452</ele>
        <time>2022-07-05T10:06:45Z</time>
      </trkpt>
      <trkpt lat="42.58893" lon="2.37166">
        <ele>455</ele>
        <time>2022-07-05T10:07:31Z</time>
      </trkpt>
      <trkpt lat="42.58909" lon="2.37191">
        <ele>464</ele>
        <time>2022-07-05T10:08:04Z</time>
      </trkpt>
      <trkpt lat="42.58971" lon="2.37215">
        <ele>472</ele>
        <time>2022-07-05T10:09:30Z</time>
      </trkpt>
      <trkpt lat="42.58994" lon="2.37231">
        <ele>478</ele>
        <time>2022-07-05T10:10:04Z</time>
      </trkpt>
      <trkpt lat="42.59009" lon="2.37238">
        <ele>481</ele>
        <time>2022-07-05T10:10:25Z</time>
      </trkpt>
      <trkpt lat="42.5902" lon="2.37239">
        <ele>481</ele>
        <time>2022-07-05T10:10:40Z</time>
      </trkpt>
      <trkpt lat="42.59034" lon="2.37244">
        <ele>483</ele>
        <time>2022-07-05T10:11:00Z</time>
      </trkpt>
      <trkpt lat="42.59048" lon="2.37243">
        <ele>482</ele>
        <time>2022-07-05T10:11:18Z</time>
      </trkpt>
      <trkpt lat="42.59064" lon="2.37252">
        <ele>487</ele>
        <time>2022-07-05T10:11:41Z</time>
      </trkpt>
      <trkpt lat="42.59077" lon="2.37249">
        <ele>485</ele>
        <time>2022-07-05T10:11:59Z</time>
      </trkpt>
      <trkpt lat="42.59086" lon="2.3725">
        <ele>485</ele>
        <time>2022-07-05T10:12:11Z</time>
      </trkpt>
      <trkpt lat="42.5909" lon="2.37253">
        <ele>486</ele>
        <time>2022-07-05T10:12:17Z</time>
      </trkpt>
      <trkpt lat="42.59087" lon="2.37254">
        <ele>487</ele>
        <time>2022-07-05T10:12:21Z</time>
      </trkpt>
      <trkpt lat="42.59093" lon="2.37257">
        <ele>489</ele>
        <time>2022-07-05T10:12:30Z</time>
      </trkpt>
      <trkpt lat="42.59092" lon="2.37249">
        <ele>483</ele>
        <time>2022-07-05T10:12:38Z</time>
      </trkpt>
      <trkpt lat="42.59091" lon="2.37252">
        <ele>485</ele>
        <time>2022-07-05T10:12:41Z</time>
      </trkpt>
      <trkpt lat="42.59097" lon="2.37254">
        <ele>486</ele>
        <time>2022-07-05T10:12:49Z</time>
      </trkpt>
      <trkpt lat="42.59104" lon="2.37262">
        <ele>490</ele>
        <time>2022-07-05T10:13:01Z</time>
      </trkpt>
      <trkpt lat="42.59125" lon="2.37292">
        <ele>505</ele>
        <time>2022-07-05T10:13:42Z</time>
      </trkpt>
      <trkpt lat="42.59137" lon="2.37298">
        <ele>506</ele>
        <time>2022-07-05T10:13:59Z</time>
      </trkpt>
      <trkpt lat="42.59145" lon="2.37313">
        <ele>512</ele>
        <time>2022-07-05T10:14:17Z</time>
      </trkpt>
      <trkpt lat="42.59152" lon="2.37338">
        <ele>523</ele>
        <time>2022-07-05T10:14:44Z</time>
      </trkpt>
      <trkpt lat="42.59164" lon="2.37352">
        <ele>525</ele>
        <time>2022-07-05T10:15:05Z</time>
      </trkpt>
      <trkpt lat="42.59191" lon="2.37398">
        <ele>535</ele>
        <time>2022-07-05T10:16:02Z</time>
      </trkpt>
      <trkpt lat="42.59208" lon="2.37421">
        <ele>541</ele>
        <time>2022-07-05T10:16:35Z</time>
      </trkpt>
      <trkpt lat="42.59235" lon="2.37438">
        <ele>543</ele>
        <time>2022-07-05T10:17:14Z</time>
      </trkpt>
      <trkpt lat="42.59254" lon="2.37445">
        <ele>542</ele>
        <time>2022-07-05T10:17:40Z</time>
      </trkpt>
      <trkpt lat="42.59293" lon="2.37453">
        <ele>541</ele>
        <time>2022-07-05T10:18:33Z</time>
      </trkpt>
      <trkpt lat="42.59343" lon="2.37457">
        <ele>529</ele>
        <time>2022-07-05T10:19:40Z</time>
      </trkpt>
      <trkpt lat="42.5936" lon="2.37476">
        <ele>524</ele>
        <time>2022-07-05T10:20:09Z</time>
      </trkpt>
      <trkpt lat="42.59357" lon="2.37503">
        <ele>543</ele>
        <time>2022-07-05T10:20:36Z</time>
      </trkpt>
      <trkpt lat="42.59347" lon="2.37518">
        <ele>557</ele>
        <time>2022-07-05T10:20:56Z</time>
      </trkpt>
      <trkpt lat="42.59352" lon="2.37558">
        <ele>570</ele>
        <time>2022-07-05T10:21:36Z</time>
      </trkpt>
      <trkpt lat="42.59359" lon="2.3757">
        <ele>570</ele>
        <time>2022-07-05T10:21:51Z</time>
      </trkpt>
      <trkpt lat="42.59382" lon="2.37588">
        <ele>560</ele>
        <time>2022-07-05T10:22:26Z</time>
      </trkpt>
      <trkpt lat="42.5938" lon="2.37602">
        <ele>565</ele>
        <time>2022-07-05T10:22:40Z</time>
      </trkpt>
      <trkpt lat="42.59372" lon="2.37614">
        <ele>574</ele>
        <time>2022-07-05T10:22:56Z</time>
      </trkpt>
      <trkpt lat="42.5937" lon="2.37627">
        <ele>578</ele>
        <time>2022-07-05T10:23:09Z</time>
      </trkpt>
      <trkpt lat="42.59374" lon="2.37678">
        <ele>588</ele>
        <time>2022-07-05T10:24:00Z</time>
      </trkpt>
      <trkpt lat="42.59369" lon="2.37692">
        <ele>593</ele>
        <time>2022-07-05T10:24:15Z</time>
      </trkpt>
      <trkpt lat="42.59333" lon="2.37753">
        <ele>621</ele>
        <time>2022-07-05T10:25:32Z</time>
      </trkpt>
      <trkpt lat="42.59317" lon="2.37813">
        <ele>629</ele>
        <time>2022-07-05T10:26:35Z</time>
      </trkpt>
      <trkpt lat="42.5929" lon="2.37844">
        <ele>643</ele>
        <time>2022-07-05T10:27:22Z</time>
      </trkpt>
      <trkpt lat="42.59288" lon="2.37842">
        <ele>645</ele>
        <time>2022-07-05T10:27:25Z</time>
      </trkpt>
      <trkpt lat="42.59286" lon="2.37826">
        <ele>647</ele>
        <time>2022-07-05T10:27:41Z</time>
      </trkpt>
      <trkpt lat="42.59271" lon="2.37844">
        <ele>655</ele>
        <time>2022-07-05T10:28:08Z</time>
      </trkpt>
      <trkpt lat="42.59229" lon="2.3792">
        <ele>668</ele>
        <time>2022-07-05T10:29:41Z</time>
      </trkpt>
      <trkpt lat="42.59186" lon="2.3796">
        <ele>685</ele>
        <time>2022-07-05T10:30:51Z</time>
      </trkpt>
      <trkpt lat="42.59179" lon="2.37975">
        <ele>686</ele>
        <time>2022-07-05T10:31:08Z</time>
      </trkpt>
      <trkpt lat="42.59175" lon="2.37993">
        <ele>683</ele>
        <time>2022-07-05T10:31:26Z</time>
      </trkpt>
      <trkpt lat="42.59175" lon="2.38002">
        <ele>682</ele>
        <time>2022-07-05T10:31:35Z</time>
      </trkpt>
      <trkpt lat="42.59179" lon="2.38001">
        <ele>680</ele>
        <time>2022-07-05T10:31:41Z</time>
      </trkpt>
      <trkpt lat="42.59176" lon="2.38005">
        <ele>681</ele>
        <time>2022-07-05T10:31:46Z</time>
      </trkpt>
      <trkpt lat="42.59176" lon="2.38014">
        <ele>680</ele>
        <time>2022-07-05T10:31:55Z</time>
      </trkpt>
      <trkpt lat="42.59169" lon="2.38027">
        <ele>682</ele>
        <time>2022-07-05T10:32:11Z</time>
      </trkpt>
      <trkpt lat="42.59168" lon="2.3806">
        <ele>679</ele>
        <time>2022-07-05T10:32:43Z</time>
      </trkpt>
      <trkpt lat="42.59154" lon="2.38103">
        <ele>687</ele>
        <time>2022-07-05T10:33:30Z</time>
      </trkpt>
      <trkpt lat="42.59156" lon="2.38118">
        <ele>689</ele>
        <time>2022-07-05T10:33:45Z</time>
      </trkpt>
      <trkpt lat="42.59163" lon="2.38116">
        <ele>687</ele>
        <time>2022-07-05T10:33:54Z</time>
      </trkpt>
      <trkpt lat="42.59174" lon="2.38108">
        <ele>683</ele>
        <time>2022-07-05T10:34:11Z</time>
      </trkpt>
      <trkpt lat="42.59192" lon="2.38088">
        <ele>675</ele>
        <time>2022-07-05T10:34:42Z</time>
      </trkpt>
      <trkpt lat="42.5921" lon="2.3808">
        <ele>671</ele>
        <time>2022-07-05T10:35:07Z</time>
      </trkpt>
      <trkpt lat="42.5923" lon="2.38079">
        <ele>668</ele>
        <time>2022-07-05T10:35:34Z</time>
      </trkpt>
      <trkpt lat="42.59245" lon="2.38083">
        <ele>667</ele>
        <time>2022-07-05T10:35:54Z</time>
      </trkpt>
      <trkpt lat="42.59306" lon="2.38081">
        <ele>668</ele>
        <time>2022-07-05T10:37:16Z</time>
      </trkpt>
      <trkpt lat="42.59342" lon="2.38062">
        <ele>661</ele>
        <time>2022-07-05T10:38:07Z</time>
      </trkpt>
      <trkpt lat="42.59366" lon="2.38055">
        <ele>661</ele>
        <time>2022-07-05T10:38:40Z</time>
      </trkpt>
      <trkpt lat="42.59406" lon="2.38059">
        <ele>667</ele>
        <time>2022-07-05T10:39:33Z</time>
      </trkpt>
      <trkpt lat="42.59415" lon="2.38058">
        <ele>668</ele>
        <time>2022-07-05T10:39:46Z</time>
      </trkpt>
      <trkpt lat="42.594" lon="2.38071">
        <ele>671</ele>
        <time>2022-07-05T10:40:09Z</time>
      </trkpt>
      <trkpt lat="42.59348" lon="2.38101">
        <ele>680</ele>
        <time>2022-07-05T10:41:25Z</time>
      </trkpt>
      <trkpt lat="42.59315" lon="2.38131">
        <ele>694</ele>
        <time>2022-07-05T10:42:18Z</time>
      </trkpt>
      <trkpt lat="42.59245" lon="2.38156">
        <ele>702</ele>
        <time>2022-07-05T10:43:54Z</time>
      </trkpt>
      <trkpt lat="42.59249" lon="2.38161">
        <ele>705</ele>
        <time>2022-07-05T10:44:02Z</time>
      </trkpt>
      <trkpt lat="42.59264" lon="2.38158">
        <ele>705</ele>
        <time>2022-07-05T10:44:22Z</time>
      </trkpt>
      <trkpt lat="42.59309" lon="2.38164">
        <ele>711</ele>
        <time>2022-07-05T10:45:22Z</time>
      </trkpt>
      <trkpt lat="42.59375" lon="2.38157">
        <ele>709</ele>
        <time>2022-07-05T10:46:50Z</time>
      </trkpt>
      <trkpt lat="42.59408" lon="2.38159">
        <ele>711</ele>
        <time>2022-07-05T10:47:35Z</time>
      </trkpt>
      <trkpt lat="42.59411" lon="2.38162">
        <ele>712</ele>
        <time>2022-07-05T10:47:39Z</time>
      </trkpt>
      <trkpt lat="42.59386" lon="2.38176">
        <ele>718</ele>
        <time>2022-07-05T10:48:16Z</time>
      </trkpt>
      <trkpt lat="42.59372" lon="2.38187">
        <ele>723</ele>
        <time>2022-07-05T10:48:37Z</time>
      </trkpt>
      <trkpt lat="42.59355" lon="2.38207">
        <ele>732</ele>
        <time>2022-07-05T10:49:07Z</time>
      </trkpt>
      <trkpt lat="42.59345" lon="2.38215">
        <ele>736</ele>
        <time>2022-07-05T10:49:23Z</time>
      </trkpt>
      <trkpt lat="42.59322" lon="2.38227">
        <ele>741</ele>
        <time>2022-07-05T10:49:56Z</time>
      </trkpt>
      <trkpt lat="42.59309" lon="2.38225">
        <ele>739</ele>
        <time>2022-07-05T10:50:13Z</time>
      </trkpt>
      <trkpt lat="42.59308" lon="2.38228">
        <ele>740</ele>
        <time>2022-07-05T10:50:16Z</time>
      </trkpt>
      <trkpt lat="42.59323" lon="2.38232">
        <ele>744</ele>
        <time>2022-07-05T10:50:37Z</time>
      </trkpt>
      <trkpt lat="42.59379" lon="2.38232">
        <ele>742</ele>
        <time>2022-07-05T10:51:51Z</time>
      </trkpt>
      <trkpt lat="42.59386" lon="2.38235">
        <ele>743</ele>
        <time>2022-07-05T10:52:01Z</time>
      </trkpt>
      <trkpt lat="42.59383" lon="2.3824">
        <ele>746</ele>
        <time>2022-07-05T10:52:07Z</time>
      </trkpt>
      <trkpt lat="42.59357" lon="2.38254">
        <ele>753</ele>
        <time>2022-07-05T10:52:45Z</time>
      </trkpt>
      <trkpt lat="42.59394" lon="2.38266">
        <ele>755</ele>
        <time>2022-07-05T10:53:36Z</time>
      </trkpt>
      <trkpt lat="42.59397" lon="2.3827">
        <ele>756</ele>
        <time>2022-07-05T10:53:41Z</time>
      </trkpt>
      <trkpt lat="42.59358" lon="2.38286">
        <ele>765</ele>
        <time>2022-07-05T10:54:36Z</time>
      </trkpt>
      <trkpt lat="42.5936" lon="2.38293">
        <ele>768</ele>
        <time>2022-07-05T10:54:43Z</time>
      </trkpt>
      <trkpt lat="42.5939" lon="2.38309">
        <ele>771</ele>
        <time>2022-07-05T10:55:26Z</time>
      </trkpt>
      <trkpt lat="42.59403" lon="2.38322">
        <ele>774</ele>
        <time>2022-07-05T10:55:47Z</time>
      </trkpt>
      <trkpt lat="42.59412" lon="2.38336">
        <ele>777</ele>
        <time>2022-07-05T10:56:06Z</time>
      </trkpt>
      <trkpt lat="42.59416" lon="2.38338">
        <ele>776</ele>
        <time>2022-07-05T10:56:11Z</time>
      </trkpt>
      <trkpt lat="42.594" lon="2.38343">
        <ele>779</ele>
        <time>2022-07-05T10:56:33Z</time>
      </trkpt>
      <trkpt lat="42.59377" lon="2.38341">
        <ele>782</ele>
        <time>2022-07-05T10:57:04Z</time>
      </trkpt>
      <trkpt lat="42.59361" lon="2.38345">
        <ele>785</ele>
        <time>2022-07-05T10:57:26Z</time>
      </trkpt>
      <trkpt lat="42.59362" lon="2.38373">
        <ele>790</ele>
        <time>2022-07-05T10:57:53Z</time>
      </trkpt>
      <trkpt lat="42.59349" lon="2.3837">
        <ele>792</ele>
        <time>2022-07-05T10:58:11Z</time>
      </trkpt>
      <trkpt lat="42.59339" lon="2.38372">
        <ele>794</ele>
        <time>2022-07-05T10:58:24Z</time>
      </trkpt>
      <trkpt lat="42.59339" lon="2.38383">
        <ele>796</ele>
        <time>2022-07-05T10:58:35Z</time>
      </trkpt>
      <trkpt lat="42.59335" lon="2.38397">
        <ele>800</ele>
        <time>2022-07-05T10:58:50Z</time>
      </trkpt>
      <trkpt lat="42.59311" lon="2.38427">
        <ele>802</ele>
        <time>2022-07-05T10:59:34Z</time>
      </trkpt>
      <trkpt lat="42.59309" lon="2.38419">
        <ele>803</ele>
        <time>2022-07-05T10:59:42Z</time>
      </trkpt>
      <trkpt lat="42.5931" lon="2.38396">
        <ele>799</ele>
        <time>2022-07-05T11:00:04Z</time>
      </trkpt>
      <trkpt lat="42.59302" lon="2.38394">
        <ele>798</ele>
        <time>2022-07-05T11:00:15Z</time>
      </trkpt>
      <trkpt lat="42.59306" lon="2.38393">
        <ele>798</ele>
        <time>2022-07-05T11:00:21Z</time>
      </trkpt>
      <trkpt lat="42.59306" lon="2.38395">
        <ele>798</ele>
        <time>2022-07-05T11:00:23Z</time>
      </trkpt>
      <trkpt lat="42.59301" lon="2.38397">
        <ele>798</ele>
        <time>2022-07-05T11:00:30Z</time>
      </trkpt>
      <trkpt lat="42.59307" lon="2.38394">
        <ele>798</ele>
        <time>2022-07-05T11:00:38Z</time>
      </trkpt>
      <trkpt lat="42.59305" lon="2.38392">
        <ele>797</ele>
        <time>2022-07-05T11:00:41Z</time>
      </trkpt>
      <trkpt lat="42.59304" lon="2.38398">
        <ele>799</ele>
        <time>2022-07-05T11:00:48Z</time>
      </trkpt>
      <trkpt lat="42.59303" lon="2.38396">
        <ele>798</ele>
        <time>2022-07-05T11:00:50Z</time>
      </trkpt>
      <trkpt lat="42.59306" lon="2.38395">
        <ele>798</ele>
        <time>2022-07-05T11:00:54Z</time>
      </trkpt>
      <trkpt lat="42.59304" lon="2.38395">
        <ele>798</ele>
        <time>2022-07-05T11:00:57Z</time>
      </trkpt>
      <trkpt lat="42.59305" lon="2.38393">
        <ele>798</ele>
        <time>2022-07-05T11:00:59Z</time>
      </trkpt>
      <trkpt lat="42.59303" lon="2.38394">
        <ele>798</ele>
        <time>2022-07-05T11:01:02Z</time>
      </trkpt>
      <trkpt lat="42.59306" lon="2.38393">
        <ele>798</ele>
        <time>2022-07-05T11:01:06Z</time>
      </trkpt>
      <trkpt lat="42.593" lon="2.38396">
        <ele>798</ele>
        <time>2022-07-05T11:01:15Z</time>
      </trkpt>
      <trkpt lat="42.59304" lon="2.38393">
        <ele>798</ele>
        <time>2022-07-05T11:01:21Z</time>
      </trkpt>
      <trkpt lat="42.59309" lon="2.38395">
        <ele>798</ele>
        <time>2022-07-05T11:01:28Z</time>
      </trkpt>
      <trkpt lat="42.59316" lon="2.38402">
        <ele>800</ele>
        <time>2022-07-05T11:01:39Z</time>
      </trkpt>
      <trkpt lat="42.59316" lon="2.38408">
        <ele>801</ele>
        <time>2022-07-05T11:01:45Z</time>
      </trkpt>
      <trkpt lat="42.59324" lon="2.38411">
        <ele>802</ele>
        <time>2022-07-05T11:01:56Z</time>
      </trkpt>
      <trkpt lat="42.59339" lon="2.38398">
        <ele>799</ele>
        <time>2022-07-05T11:02:20Z</time>
      </trkpt>
      <trkpt lat="42.59341" lon="2.38364">
        <ele>792</ele>
        <time>2022-07-05T11:02:53Z</time>
      </trkpt>
      <trkpt lat="42.59364" lon="2.38373">
        <ele>789</ele>
        <time>2022-07-05T11:03:25Z</time>
      </trkpt>
      <trkpt lat="42.59368" lon="2.3837">
        <ele>788</ele>
        <time>2022-07-05T11:03:31Z</time>
      </trkpt>
      <trkpt lat="42.59359" lon="2.38355">
        <ele>787</ele>
        <time>2022-07-05T11:03:50Z</time>
      </trkpt>
      <trkpt lat="42.59363" lon="2.38346">
        <ele>785</ele>
        <time>2022-07-05T11:04:01Z</time>
      </trkpt>
      <trkpt lat="42.59412" lon="2.38338">
        <ele>777</ele>
        <time>2022-07-05T11:05:07Z</time>
      </trkpt>
      <trkpt lat="42.5942" lon="2.38345">
        <ele>776</ele>
        <time>2022-07-05T11:05:19Z</time>
      </trkpt>
      <trkpt lat="42.59423" lon="2.3835">
        <ele>776</ele>
        <time>2022-07-05T11:05:26Z</time>
      </trkpt>
      <trkpt lat="42.59424" lon="2.38363">
        <ele>777</ele>
        <time>2022-07-05T11:05:39Z</time>
      </trkpt>
      <trkpt lat="42.59434" lon="2.38405">
        <ele>780</ele>
        <time>2022-07-05T11:06:22Z</time>
      </trkpt>
      <trkpt lat="42.59437" lon="2.38441">
        <ele>781</ele>
        <time>2022-07-05T11:06:58Z</time>
      </trkpt>
      <trkpt lat="42.59434" lon="2.38455">
        <ele>781</ele>
        <time>2022-07-05T11:07:12Z</time>
      </trkpt>
      <trkpt lat="42.59423" lon="2.38458">
        <ele>782</ele>
        <time>2022-07-05T11:07:27Z</time>
      </trkpt>
      <trkpt lat="42.59419" lon="2.38456">
        <ele>782</ele>
        <time>2022-07-05T11:07:32Z</time>
      </trkpt>
      <trkpt lat="42.59419" lon="2.38453">
        <ele>782</ele>
        <time>2022-07-05T11:07:35Z</time>
      </trkpt>
      <trkpt lat="42.5942" lon="2.38457">
        <ele>782</ele>
        <time>2022-07-05T11:07:40Z</time>
      </trkpt>
      <trkpt lat="42.59436" lon="2.38453">
        <ele>781</ele>
        <time>2022-07-05T11:08:01Z</time>
      </trkpt>
      <trkpt lat="42.59445" lon="2.3849">
        <ele>781</ele>
        <time>2022-07-05T11:08:40Z</time>
      </trkpt>
      <trkpt lat="42.59453" lon="2.38541">
        <ele>775</ele>
        <time>2022-07-05T11:09:31Z</time>
      </trkpt>
      <trkpt lat="42.59453" lon="2.38557">
        <ele>773</ele>
        <time>2022-07-05T11:09:47Z</time>
      </trkpt>
      <trkpt lat="42.59446" lon="2.38585">
        <ele>770</ele>
        <time>2022-07-05T11:10:16Z</time>
      </trkpt>
      <trkpt lat="42.59424" lon="2.3864">
        <ele>763</ele>
        <time>2022-07-05T11:11:17Z</time>
      </trkpt>
      <trkpt lat="42.59413" lon="2.38664">
        <ele>760</ele>
        <time>2022-07-05T11:11:45Z</time>
      </trkpt>
      <trkpt lat="42.5939" lon="2.38702">
        <ele>760</ele>
        <time>2022-07-05T11:12:33Z</time>
      </trkpt>
      <trkpt lat="42.59375" lon="2.38736">
        <ele>759</ele>
        <time>2022-07-05T11:13:12Z</time>
      </trkpt>
      <trkpt lat="42.59362" lon="2.38749">
        <ele>758</ele>
        <time>2022-07-05T11:13:34Z</time>
      </trkpt>
      <trkpt lat="42.59347" lon="2.38755">
        <ele>759</ele>
        <time>2022-07-05T11:13:55Z</time>
      </trkpt>
      <trkpt lat="42.5933" lon="2.38766">
        <ele>759</ele>
        <time>2022-07-05T11:14:20Z</time>
      </trkpt>
      <trkpt lat="42.59266" lon="2.38795">
        <ele>752</ele>
        <time>2022-07-05T11:15:50Z</time>
      </trkpt>
      <trkpt lat="42.59261" lon="2.38812">
        <ele>750</ele>
        <time>2022-07-05T11:16:08Z</time>
      </trkpt>
      <trkpt lat="42.5926" lon="2.38829">
        <ele>748</ele>
        <time>2022-07-05T11:16:24Z</time>
      </trkpt>
      <trkpt lat="42.59248" lon="2.38842">
        <ele>745</ele>
        <time>2022-07-05T11:16:45Z</time>
      </trkpt>
      <trkpt lat="42.5922" lon="2.38846">
        <ele>741</ele>
        <time>2022-07-05T11:17:22Z</time>
      </trkpt>
      <trkpt lat="42.59211" lon="2.3886">
        <ele>738</ele>
        <time>2022-07-05T11:17:41Z</time>
      </trkpt>
      <trkpt lat="42.5921" lon="2.38886">
        <ele>735</ele>
        <time>2022-07-05T11:18:06Z</time>
      </trkpt>
      <trkpt lat="42.59204" lon="2.38899">
        <ele>732</ele>
        <time>2022-07-05T11:18:21Z</time>
      </trkpt>
      <trkpt lat="42.5918" lon="2.38924">
        <ele>725</ele>
        <time>2022-07-05T11:19:02Z</time>
      </trkpt>
      <trkpt lat="42.59119" lon="2.38964">
        <ele>716</ele>
        <time>2022-07-05T11:20:32Z</time>
      </trkpt>
      <trkpt lat="42.59106" lon="2.38969">
        <ele>714</ele>
        <time>2022-07-05T11:20:50Z</time>
      </trkpt>
      <trkpt lat="42.59101" lon="2.38951">
        <ele>716</ele>
        <time>2022-07-05T11:21:09Z</time>
      </trkpt>
      <trkpt lat="42.59079" lon="2.38907">
        <ele>719</ele>
        <time>2022-07-05T11:22:01Z</time>
      </trkpt>
      <trkpt lat="42.59067" lon="2.3889">
        <ele>720</ele>
        <time>2022-07-05T11:22:24Z</time>
      </trkpt>
      <trkpt lat="42.59023" lon="2.38847">
        <ele>722</ele>
        <time>2022-07-05T11:23:37Z</time>
      </trkpt>
      <trkpt lat="42.58976" lon="2.38788">
        <ele>723</ele>
        <time>2022-07-05T11:25:02Z</time>
      </trkpt>
      <trkpt lat="42.58969" lon="2.38782">
        <ele>723</ele>
        <time>2022-07-05T11:25:13Z</time>
      </trkpt>
      <trkpt lat="42.58969" lon="2.38775">
        <ele>724</ele>
        <time>2022-07-05T11:25:20Z</time>
      </trkpt>
      <trkpt lat="42.58963" lon="2.38774">
        <ele>724</ele>
        <time>2022-07-05T11:25:28Z</time>
      </trkpt>
      <trkpt lat="42.58951" lon="2.38762">
        <ele>723</ele>
        <time>2022-07-05T11:25:48Z</time>
      </trkpt>
      <trkpt lat="42.58941" lon="2.38747">
        <ele>723</ele>
        <time>2022-07-05T11:26:08Z</time>
      </trkpt>
      <trkpt lat="42.58905" lon="2.38707">
        <ele>721</ele>
        <time>2022-07-05T11:27:10Z</time>
      </trkpt>
      <trkpt lat="42.58892" lon="2.38691">
        <ele>721</ele>
        <time>2022-07-05T11:27:33Z</time>
      </trkpt>
      <trkpt lat="42.58877" lon="2.38662">
        <ele>720</ele>
        <time>2022-07-05T11:28:08Z</time>
      </trkpt>
      <trkpt lat="42.58865" lon="2.3865">
        <ele>719</ele>
        <time>2022-07-05T11:28:28Z</time>
      </trkpt>
      <trkpt lat="42.58854" lon="2.3863">
        <ele>718</ele>
        <time>2022-07-05T11:28:53Z</time>
      </trkpt>
      <trkpt lat="42.58846" lon="2.386">
        <ele>718</ele>
        <time>2022-07-05T11:29:24Z</time>
      </trkpt>
      <trkpt lat="42.58815" lon="2.38519">
        <ele>716</ele>
        <time>2022-07-05T11:30:54Z</time>
      </trkpt>
      <trkpt lat="42.58811" lon="2.38489">
        <ele>716</ele>
        <time>2022-07-05T11:31:24Z</time>
      </trkpt>
      <trkpt lat="42.58796" lon="2.38448">
        <ele>715</ele>
        <time>2022-07-05T11:32:09Z</time>
      </trkpt>
      <trkpt lat="42.58794" lon="2.38433">
        <ele>715</ele>
        <time>2022-07-05T11:32:24Z</time>
      </trkpt>
      <trkpt lat="42.58776" lon="2.38405">
        <ele>715</ele>
        <time>2022-07-05T11:33:00Z</time>
      </trkpt>
      <trkpt lat="42.58767" lon="2.38375">
        <ele>715</ele>
        <time>2022-07-05T11:33:32Z</time>
      </trkpt>
      <trkpt lat="42.58734" lon="2.38292">
        <ele>716</ele>
        <time>2022-07-05T11:35:05Z</time>
      </trkpt>
      <trkpt lat="42.58718" lon="2.38218">
        <ele>718</ele>
        <time>2022-07-05T11:36:20Z</time>
      </trkpt>
      <trkpt lat="42.58702" lon="2.3818">
        <ele>720</ele>
        <time>2022-07-05T11:37:03Z</time>
      </trkpt>
      <trkpt lat="42.58694" lon="2.38149">
        <ele>721</ele>
        <time>2022-07-05T11:37:36Z</time>
      </trkpt>
      <trkpt lat="42.58722" lon="2.38133">
        <ele>721</ele>
        <time>2022-07-05T11:38:16Z</time>
      </trkpt>
      <trkpt lat="42.58736" lon="2.38129">
        <ele>721</ele>
        <time>2022-07-05T11:38:35Z</time>
      </trkpt>
      <trkpt lat="42.58748" lon="2.3812">
        <ele>722</ele>
        <time>2022-07-05T11:38:54Z</time>
      </trkpt>
      <trkpt lat="42.58776" lon="2.38079">
        <ele>731</ele>
        <time>2022-07-05T11:39:49Z</time>
      </trkpt>
      <trkpt lat="42.58765" lon="2.38023">
        <ele>737</ele>
        <time>2022-07-05T11:40:46Z</time>
      </trkpt>
      <trkpt lat="42.58714" lon="2.37959">
        <ele>742</ele>
        <time>2022-07-05T11:42:18Z</time>
      </trkpt>
      <trkpt lat="42.5872" lon="2.37902">
        <ele>748</ele>
        <time>2022-07-05T11:43:15Z</time>
      </trkpt>
      <trkpt lat="42.58721" lon="2.37823">
        <ele>754</ele>
        <time>2022-07-05T11:44:32Z</time>
      </trkpt>
      <trkpt lat="42.58725" lon="2.37784">
        <ele>755</ele>
        <time>2022-07-05T11:45:11Z</time>
      </trkpt>
      <trkpt lat="42.58733" lon="2.37757">
        <ele>755</ele>
        <time>2022-07-05T11:45:40Z</time>
      </trkpt>
      <trkpt lat="42.58742" lon="2.37747">
        <ele>755</ele>
        <time>2022-07-05T11:45:55Z</time>
      </trkpt>
      <trkpt lat="42.58745" lon="2.37737">
        <ele>755</ele>
        <time>2022-07-05T11:46:06Z</time>
      </trkpt>
      <trkpt lat="42.5876" lon="2.37711">
        <ele>757</ele>
        <time>2022-07-05T11:46:38Z</time>
      </trkpt>
      <trkpt lat="42.58771" lon="2.37706">
        <ele>759</ele>
        <time>2022-07-05T11:46:54Z</time>
      </trkpt>
      <trkpt lat="42.5878" lon="2.37696">
        <ele>761</ele>
        <time>2022-07-05T11:47:09Z</time>
      </trkpt>
      <trkpt lat="42.58792" lon="2.37652">
        <ele>759</ele>
        <time>2022-07-05T11:47:55Z</time>
      </trkpt>
      <trkpt lat="42.588" lon="2.37646">
        <ele>759</ele>
        <time>2022-07-05T11:48:08Z</time>
      </trkpt>
      <trkpt lat="42.58814" lon="2.37625">
        <ele>756</ele>
        <time>2022-07-05T11:48:35Z</time>
      </trkpt>
      <trkpt lat="42.58821" lon="2.3761">
        <ele>752</ele>
        <time>2022-07-05T11:48:53Z</time>
      </trkpt>
      <trkpt lat="42.58819" lon="2.37609">
        <ele>752</ele>
        <time>2022-07-05T11:48:56Z</time>
      </trkpt>
      <trkpt lat="42.58821" lon="2.37605">
        <ele>751</ele>
        <time>2022-07-05T11:49:00Z</time>
      </trkpt>
      <trkpt lat="42.58821" lon="2.37609">
        <ele>752</ele>
        <time>2022-07-05T11:49:04Z</time>
      </trkpt>
      <trkpt lat="42.58821" lon="2.37605">
        <ele>751</ele>
        <time>2022-07-05T11:49:08Z</time>
      </trkpt>
      <trkpt lat="42.58818" lon="2.37605">
        <ele>751</ele>
        <time>2022-07-05T11:49:12Z</time>
      </trkpt>
      <trkpt lat="42.5882" lon="2.37607">
        <ele>751</ele>
        <time>2022-07-05T11:49:16Z</time>
      </trkpt>
      <trkpt lat="42.58819" lon="2.37611">
        <ele>752</ele>
        <time>2022-07-05T11:49:20Z</time>
      </trkpt>
      <trkpt lat="42.58802" lon="2.37643">
        <ele>759</ele>
        <time>2022-07-05T11:49:58Z</time>
      </trkpt>
      <trkpt lat="42.58787" lon="2.37653">
        <ele>759</ele>
        <time>2022-07-05T11:50:21Z</time>
      </trkpt>
      <trkpt lat="42.58781" lon="2.37662">
        <ele>759</ele>
        <time>2022-07-05T11:50:33Z</time>
      </trkpt>
      <trkpt lat="42.58773" lon="2.37659">
        <ele>757</ele>
        <time>2022-07-05T11:50:44Z</time>
      </trkpt>
      <trkpt lat="42.58762" lon="2.3767">
        <ele>756</ele>
        <time>2022-07-05T11:51:02Z</time>
      </trkpt>
      <trkpt lat="42.58763" lon="2.377">
        <ele>757</ele>
        <time>2022-07-05T11:51:32Z</time>
      </trkpt>
      <trkpt lat="42.58743" lon="2.37736">
        <ele>755</ele>
        <time>2022-07-05T11:52:16Z</time>
      </trkpt>
      <trkpt lat="42.58735" lon="2.37746">
        <ele>756</ele>
        <time>2022-07-05T11:52:30Z</time>
      </trkpt>
      <trkpt lat="42.58727" lon="2.37772">
        <ele>755</ele>
        <time>2022-07-05T11:52:58Z</time>
      </trkpt>
      <trkpt lat="42.58719" lon="2.37812">
        <ele>755</ele>
        <time>2022-07-05T11:53:39Z</time>
      </trkpt>
      <trkpt lat="42.58703" lon="2.37816">
        <ele>756</ele>
        <time>2022-07-05T11:54:00Z</time>
      </trkpt>
      <trkpt lat="42.58674" lon="2.37815">
        <ele>758</ele>
        <time>2022-07-05T11:54:39Z</time>
      </trkpt>
      <trkpt lat="42.58672" lon="2.37818">
        <ele>758</ele>
        <time>2022-07-05T11:54:43Z</time>
      </trkpt>
      <trkpt lat="42.58667" lon="2.37811">
        <ele>758</ele>
        <time>2022-07-05T11:54:53Z</time>
      </trkpt>
      <trkpt lat="42.58647" lon="2.37803">
        <ele>757</ele>
        <time>2022-07-05T11:55:21Z</time>
      </trkpt>
      <trkpt lat="42.58672" lon="2.37811">
        <ele>758</ele>
        <time>2022-07-05T11:55:55Z</time>
      </trkpt>
      <trkpt lat="42.58669" lon="2.37811">
        <ele>758</ele>
        <time>2022-07-05T11:55:59Z</time>
      </trkpt>
      <trkpt lat="42.58672" lon="2.37817">
        <ele>758</ele>
        <time>2022-07-05T11:56:06Z</time>
      </trkpt>
      <trkpt lat="42.58689" lon="2.3782">
        <ele>757</ele>
        <time>2022-07-05T11:56:29Z</time>
      </trkpt>
      <trkpt lat="42.58696" lon="2.37818">
        <ele>756</ele>
        <time>2022-07-05T11:56:38Z</time>
      </trkpt>
      <trkpt lat="42.58704" lon="2.37824">
        <ele>755</ele>
        <time>2022-07-05T11:56:51Z</time>
      </trkpt>
      <trkpt lat="42.58712" lon="2.37826">
        <ele>755</ele>
        <time>2022-07-05T11:57:01Z</time>
      </trkpt>
      <trkpt lat="42.58718" lon="2.37833">
        <ele>754</ele>
        <time>2022-07-05T11:57:12Z</time>
      </trkpt>
      <trkpt lat="42.58722" lon="2.37852">
        <ele>752</ele>
        <time>2022-07-05T11:57:31Z</time>
      </trkpt>
      <trkpt lat="42.58723" lon="2.37898">
        <ele>748</ele>
        <time>2022-07-05T11:58:17Z</time>
      </trkpt>
      <trkpt lat="42.58715" lon="2.3795">
        <ele>743</ele>
        <time>2022-07-05T11:59:09Z</time>
      </trkpt>
      <trkpt lat="42.58696" lon="2.37985">
        <ele>739</ele>
        <time>2022-07-05T11:59:52Z</time>
      </trkpt>
      <trkpt lat="42.58676" lon="2.38013">
        <ele>735</ele>
        <time>2022-07-05T12:00:30Z</time>
      </trkpt>
      <trkpt lat="42.58659" lon="2.38021">
        <ele>734</ele>
        <time>2022-07-05T12:00:54Z</time>
      </trkpt>
      <trkpt lat="42.58642" lon="2.38023">
        <ele>735</ele>
        <time>2022-07-05T12:01:17Z</time>
      </trkpt>
      <trkpt lat="42.58603" lon="2.38033">
        <ele>735</ele>
        <time>2022-07-05T12:02:10Z</time>
      </trkpt>
      <trkpt lat="42.5859" lon="2.38024">
        <ele>736</ele>
        <time>2022-07-05T12:02:29Z</time>
      </trkpt>
      <trkpt lat="42.58562" lon="2.37995">
        <ele>740</ele>
        <time>2022-07-05T12:03:16Z</time>
      </trkpt>
      <trkpt lat="42.58542" lon="2.37981">
        <ele>741</ele>
        <time>2022-07-05T12:03:46Z</time>
      </trkpt>
      <trkpt lat="42.58519" lon="2.37975">
        <ele>741</ele>
        <time>2022-07-05T12:04:17Z</time>
      </trkpt>
      <trkpt lat="42.58513" lon="2.3797">
        <ele>741</ele>
        <time>2022-07-05T12:04:27Z</time>
      </trkpt>
      <trkpt lat="42.58491" lon="2.37906">
        <ele>744</ele>
        <time>2022-07-05T12:05:36Z</time>
      </trkpt>
      <trkpt lat="42.58479" lon="2.37886">
        <ele>746</ele>
        <time>2022-07-05T12:06:01Z</time>
      </trkpt>
      <trkpt lat="42.58465" lon="2.37889">
        <ele>748</ele>
        <time>2022-07-05T12:06:20Z</time>
      </trkpt>
      <trkpt lat="42.58458" lon="2.37899">
        <ele>750</ele>
        <time>2022-07-05T12:06:34Z</time>
      </trkpt>
      <trkpt lat="42.58455" lon="2.3799">
        <ele>748</ele>
        <time>2022-07-05T12:08:03Z</time>
      </trkpt>
      <trkpt lat="42.58452" lon="2.38006">
        <ele>748</ele>
        <time>2022-07-05T12:08:20Z</time>
      </trkpt>
      <trkpt lat="42.58439" lon="2.38022">
        <ele>748</ele>
        <time>2022-07-05T12:08:43Z</time>
      </trkpt>
      <trkpt lat="42.58432" lon="2.38036">
        <ele>748</ele>
        <time>2022-07-05T12:09:00Z</time>
      </trkpt>
      <trkpt lat="42.58412" lon="2.38054">
        <ele>750</ele>
        <time>2022-07-05T12:09:32Z</time>
      </trkpt>
      <trkpt lat="42.58399" lon="2.38058">
        <ele>752</ele>
        <time>2022-07-05T12:09:50Z</time>
      </trkpt>
      <trkpt lat="42.58391" lon="2.38065">
        <ele>753</ele>
        <time>2022-07-05T12:10:02Z</time>
      </trkpt>
      <trkpt lat="42.58399" lon="2.38047">
        <ele>753</ele>
        <time>2022-07-05T12:10:23Z</time>
      </trkpt>
      <trkpt lat="42.58389" lon="2.38002">
        <ele>761</ele>
        <time>2022-07-05T12:11:09Z</time>
      </trkpt>
      <trkpt lat="42.58389" lon="2.37992">
        <ele>761</ele>
        <time>2022-07-05T12:11:19Z</time>
      </trkpt>
      <trkpt lat="42.58395" lon="2.3798">
        <ele>760</ele>
        <time>2022-07-05T12:11:33Z</time>
      </trkpt>
      <trkpt lat="42.58395" lon="2.37971">
        <ele>760</ele>
        <time>2022-07-05T12:11:42Z</time>
      </trkpt>
      <trkpt lat="42.5836" lon="2.37832">
        <ele>760</ele>
        <time>2022-07-05T12:14:06Z</time>
      </trkpt>
      <trkpt lat="42.58358" lon="2.37818">
        <ele>758</ele>
        <time>2022-07-05T12:14:20Z</time>
      </trkpt>
      <trkpt lat="42.58359" lon="2.37793">
        <ele>754</ele>
        <time>2022-07-05T12:14:45Z</time>
      </trkpt>
      <trkpt lat="42.58351" lon="2.37742">
        <ele>745</ele>
        <time>2022-07-05T12:15:36Z</time>
      </trkpt>
      <trkpt lat="42.58347" lon="2.3774">
        <ele>744</ele>
        <time>2022-07-05T12:15:42Z</time>
      </trkpt>
      <trkpt lat="42.58349" lon="2.37739">
        <ele>744</ele>
        <time>2022-07-05T12:15:45Z</time>
      </trkpt>
      <trkpt lat="42.58348" lon="2.37742">
        <ele>745</ele>
        <time>2022-07-05T12:15:48Z</time>
      </trkpt>
      <trkpt lat="42.58349" lon="2.3774">
        <ele>744</ele>
        <time>2022-07-05T12:15:50Z</time>
      </trkpt>
      <trkpt lat="42.58352" lon="2.37748">
        <ele>748</ele>
        <time>2022-07-05T12:15:59Z</time>
      </trkpt>
      <trkpt lat="42.5836" lon="2.37799">
        <ele>755</ele>
        <time>2022-07-05T12:16:50Z</time>
      </trkpt>
      <trkpt lat="42.58357" lon="2.37806">
        <ele>756</ele>
        <time>2022-07-05T12:16:58Z</time>
      </trkpt>
      <trkpt lat="42.58357" lon="2.37827">
        <ele>759</ele>
        <time>2022-07-05T12:17:19Z</time>
      </trkpt>
      <trkpt lat="42.58361" lon="2.37843">
        <ele>761</ele>
        <time>2022-07-05T12:17:36Z</time>
      </trkpt>
      <trkpt lat="42.58354" lon="2.37865">
        <ele>764</ele>
        <time>2022-07-05T12:17:59Z</time>
      </trkpt>
      <trkpt lat="42.58336" lon="2.37875">
        <ele>768</ele>
        <time>2022-07-05T12:18:25Z</time>
      </trkpt>
      <trkpt lat="42.58323" lon="2.37891">
        <ele>770</ele>
        <time>2022-07-05T12:18:49Z</time>
      </trkpt>
      <trkpt lat="42.58321" lon="2.379">
        <ele>771</ele>
        <time>2022-07-05T12:18:58Z</time>
      </trkpt>
      <trkpt lat="42.58314" lon="2.37902">
        <ele>771</ele>
        <time>2022-07-05T12:19:07Z</time>
      </trkpt>
      <trkpt lat="42.58318" lon="2.37903">
        <ele>772</ele>
        <time>2022-07-05T12:19:13Z</time>
      </trkpt>
      <trkpt lat="42.58309" lon="2.37958">
        <ele>775</ele>
        <time>2022-07-05T12:20:08Z</time>
      </trkpt>
      <trkpt lat="42.58284" lon="2.38019">
        <ele>777</ele>
        <time>2022-07-05T12:21:17Z</time>
      </trkpt>
      <trkpt lat="42.58284" lon="2.38065">
        <ele>774</ele>
        <time>2022-07-05T12:22:02Z</time>
      </trkpt>
      <trkpt lat="42.58273" lon="2.38089">
        <ele>775</ele>
        <time>2022-07-05T12:22:30Z</time>
      </trkpt>
      <trkpt lat="42.5828" lon="2.38122">
        <ele>773</ele>
        <time>2022-07-05T12:23:03Z</time>
      </trkpt>
      <trkpt lat="42.58283" lon="2.38166">
        <ele>771</ele>
        <time>2022-07-05T12:23:47Z</time>
      </trkpt>
      <trkpt lat="42.58294" lon="2.38216">
        <ele>773</ele>
        <time>2022-07-05T12:24:38Z</time>
      </trkpt>
      <trkpt lat="42.58294" lon="2.38243">
        <ele>775</ele>
        <time>2022-07-05T12:25:05Z</time>
      </trkpt>
      <trkpt lat="42.58289" lon="2.38278">
        <ele>776</ele>
        <time>2022-07-05T12:25:40Z</time>
      </trkpt>
      <trkpt lat="42.58276" lon="2.38296">
        <ele>778</ele>
        <time>2022-07-05T12:26:04Z</time>
      </trkpt>
      <trkpt lat="42.58255" lon="2.38347">
        <ele>782</ele>
        <time>2022-07-05T12:27:02Z</time>
      </trkpt>
      <trkpt lat="42.58241" lon="2.38394">
        <ele>784</ele>
        <time>2022-07-05T12:27:52Z</time>
      </trkpt>
      <trkpt lat="42.58237" lon="2.384">
        <ele>783</ele>
        <time>2022-07-05T12:28:00Z</time>
      </trkpt>
      <trkpt lat="42.58183" lon="2.3842">
        <ele>780</ele>
        <time>2022-07-05T12:29:14Z</time>
      </trkpt>
      <trkpt lat="42.58164" lon="2.38432">
        <ele>779</ele>
        <time>2022-07-05T12:29:42Z</time>
      </trkpt>
      <trkpt lat="42.58143" lon="2.38453">
        <ele>776</ele>
        <time>2022-07-05T12:30:17Z</time>
      </trkpt>
      <trkpt lat="42.58131" lon="2.38474">
        <ele>774</ele>
        <time>2022-07-05T12:30:43Z</time>
      </trkpt>
      <trkpt lat="42.58114" lon="2.38475">
        <ele>771</ele>
        <time>2022-07-05T12:31:06Z</time>
      </trkpt>
      <trkpt lat="42.58101" lon="2.38495">
        <ele>769</ele>
        <time>2022-07-05T12:31:32Z</time>
      </trkpt>
      <trkpt lat="42.58075" lon="2.38525">
        <ele>769</ele>
        <time>2022-07-05T12:32:18Z</time>
      </trkpt>
      <trkpt lat="42.58042" lon="2.38554">
        <ele>770</ele>
        <time>2022-07-05T12:33:10Z</time>
      </trkpt>
      <trkpt lat="42.58016" lon="2.38572">
        <ele>770</ele>
        <time>2022-07-05T12:33:49Z</time>
      </trkpt>
      <trkpt lat="42.57999" lon="2.38576">
        <ele>769</ele>
        <time>2022-07-05T12:34:12Z</time>
      </trkpt>
      <trkpt lat="42.57983" lon="2.38584">
        <ele>769</ele>
        <time>2022-07-05T12:34:35Z</time>
      </trkpt>
      <trkpt lat="42.57918" lon="2.38596">
        <ele>764</ele>
        <time>2022-07-05T12:36:02Z</time>
      </trkpt>
      <trkpt lat="42.579" lon="2.38614">
        <ele>763</ele>
        <time>2022-07-05T12:36:32Z</time>
      </trkpt>
      <trkpt lat="42.57883" lon="2.38626">
        <ele>762</ele>
        <time>2022-07-05T12:36:58Z</time>
      </trkpt>
      <trkpt lat="42.57815" lon="2.38662">
        <ele>748</ele>
        <time>2022-07-05T12:38:35Z</time>
      </trkpt>
      <trkpt lat="42.57808" lon="2.38674">
        <ele>746</ele>
        <time>2022-07-05T12:38:50Z</time>
      </trkpt>
      <trkpt lat="42.57803" lon="2.38677">
        <ele>745</ele>
        <time>2022-07-05T12:38:57Z</time>
      </trkpt>
      <trkpt lat="42.57798" lon="2.38677">
        <ele>744</ele>
        <time>2022-07-05T12:39:04Z</time>
      </trkpt>
      <trkpt lat="42.57797" lon="2.38668">
        <ele>743</ele>
        <time>2022-07-05T12:39:13Z</time>
      </trkpt>
      <trkpt lat="42.57794" lon="2.38679">
        <ele>743</ele>
        <time>2022-07-05T12:39:25Z</time>
      </trkpt>
      <trkpt lat="42.57796" lon="2.3867">
        <ele>743</ele>
        <time>2022-07-05T12:39:34Z</time>
      </trkpt>
      <trkpt lat="42.57792" lon="2.38667">
        <ele>742</ele>
        <time>2022-07-05T12:39:40Z</time>
      </trkpt>
      <trkpt lat="42.578" lon="2.38676">
        <ele>744</ele>
        <time>2022-07-05T12:39:54Z</time>
      </trkpt>
      <trkpt lat="42.57798" lon="2.38687">
        <ele>744</ele>
        <time>2022-07-05T12:40:05Z</time>
      </trkpt>
      <trkpt lat="42.5779" lon="2.38695">
        <ele>742</ele>
        <time>2022-07-05T12:40:18Z</time>
      </trkpt>
      <trkpt lat="42.57787" lon="2.38707">
        <ele>741</ele>
        <time>2022-07-05T12:40:31Z</time>
      </trkpt>
      <trkpt lat="42.5779" lon="2.38733">
        <ele>742</ele>
        <time>2022-07-05T12:40:57Z</time>
      </trkpt>
      <trkpt lat="42.57724" lon="2.3875">
        <ele>726</ele>
        <time>2022-07-05T12:42:26Z</time>
      </trkpt>
      <trkpt lat="42.57706" lon="2.3874">
        <ele>722</ele>
        <time>2022-07-05T12:42:52Z</time>
      </trkpt>
      <trkpt lat="42.57688" lon="2.38739">
        <ele>718</ele>
        <time>2022-07-05T12:43:16Z</time>
      </trkpt>
      <trkpt lat="42.57674" lon="2.38742">
        <ele>714</ele>
        <time>2022-07-05T12:43:35Z</time>
      </trkpt>
      <trkpt lat="42.57643" lon="2.38822">
        <ele>712</ele>
        <time>2022-07-05T12:45:04Z</time>
      </trkpt>
      <trkpt lat="42.5764" lon="2.38823">
        <ele>711</ele>
        <time>2022-07-05T12:45:08Z</time>
      </trkpt>
      <trkpt lat="42.57632" lon="2.38816">
        <ele>709</ele>
        <time>2022-07-05T12:45:21Z</time>
      </trkpt>
      <trkpt lat="42.5763" lon="2.38807">
        <ele>708</ele>
        <time>2022-07-05T12:45:30Z</time>
      </trkpt>
      <trkpt lat="42.57621" lon="2.38789">
        <ele>706</ele>
        <time>2022-07-05T12:45:51Z</time>
      </trkpt>
      <trkpt lat="42.57611" lon="2.38754">
        <ele>702</ele>
        <time>2022-07-05T12:46:28Z</time>
      </trkpt>
      <trkpt lat="42.57599" lon="2.38739">
        <ele>699</ele>
        <time>2022-07-05T12:46:50Z</time>
      </trkpt>
      <trkpt lat="42.57584" lon="2.38712">
        <ele>694</ele>
        <time>2022-07-05T12:47:23Z</time>
      </trkpt>
      <trkpt lat="42.57547" lon="2.38699">
        <ele>688</ele>
        <time>2022-07-05T12:48:14Z</time>
      </trkpt>
      <trkpt lat="42.57526" lon="2.38695">
        <ele>686</ele>
        <time>2022-07-05T12:48:43Z</time>
      </trkpt>
      <trkpt lat="42.5749" lon="2.38676">
        <ele>680</ele>
        <time>2022-07-05T12:49:34Z</time>
      </trkpt>
      <trkpt lat="42.57483" lon="2.3867">
        <ele>679</ele>
        <time>2022-07-05T12:49:45Z</time>
      </trkpt>
      <trkpt lat="42.57463" lon="2.38662">
        <ele>676</ele>
        <time>2022-07-05T12:50:13Z</time>
      </trkpt>
      <trkpt lat="42.57416" lon="2.38631">
        <ele>667</ele>
        <time>2022-07-05T12:51:23Z</time>
      </trkpt>
      <trkpt lat="42.57408" lon="2.38628">
        <ele>666</ele>
        <time>2022-07-05T12:51:34Z</time>
      </trkpt>
      <trkpt lat="42.57383" lon="2.38602">
        <ele>660</ele>
        <time>2022-07-05T12:52:16Z</time>
      </trkpt>
      <trkpt lat="42.57365" lon="2.38576">
        <ele>656</ele>
        <time>2022-07-05T12:52:51Z</time>
      </trkpt>
      <trkpt lat="42.57352" lon="2.38565">
        <ele>654</ele>
        <time>2022-07-05T12:53:11Z</time>
      </trkpt>
      <trkpt lat="42.57349" lon="2.38559">
        <ele>653</ele>
        <time>2022-07-05T12:53:18Z</time>
      </trkpt>
      <trkpt lat="42.57329" lon="2.38538">
        <ele>649</ele>
        <time>2022-07-05T12:53:52Z</time>
      </trkpt>
      <trkpt lat="42.57316" lon="2.38514">
        <ele>645</ele>
        <time>2022-07-05T12:54:21Z</time>
      </trkpt>
      <trkpt lat="42.57313" lon="2.38484">
        <ele>640</ele>
        <time>2022-07-05T12:54:51Z</time>
      </trkpt>
      <trkpt lat="42.57306" lon="2.38467">
        <ele>637</ele>
        <time>2022-07-05T12:55:10Z</time>
      </trkpt>
      <trkpt lat="42.573" lon="2.38462">
        <ele>636</ele>
        <time>2022-07-05T12:55:20Z</time>
      </trkpt>
      <trkpt lat="42.57294" lon="2.38452">
        <ele>635</ele>
        <time>2022-07-05T12:55:32Z</time>
      </trkpt>
      <trkpt lat="42.57292" lon="2.38438">
        <ele>633</ele>
        <time>2022-07-05T12:55:46Z</time>
      </trkpt>
      <trkpt lat="42.57295" lon="2.38428">
        <ele>631</ele>
        <time>2022-07-05T12:55:57Z</time>
      </trkpt>
      <trkpt lat="42.57288" lon="2.38381">
        <ele>625</ele>
        <time>2022-07-05T12:56:44Z</time>
      </trkpt>
      <trkpt lat="42.57272" lon="2.38363">
        <ele>622</ele>
        <time>2022-07-05T12:57:12Z</time>
      </trkpt>
      <trkpt lat="42.57247" lon="2.38361">
        <ele>621</ele>
        <time>2022-07-05T12:57:45Z</time>
      </trkpt>
      <trkpt lat="42.57237" lon="2.38366">
        <ele>622</ele>
        <time>2022-07-05T12:57:59Z</time>
      </trkpt>
      <trkpt lat="42.57225" lon="2.38383">
        <ele>624</ele>
        <time>2022-07-05T12:58:23Z</time>
      </trkpt>
      <trkpt lat="42.57202" lon="2.3838">
        <ele>622</ele>
        <time>2022-07-05T12:58:53Z</time>
      </trkpt>
      <trkpt lat="42.57181" lon="2.38358">
        <ele>618</ele>
        <time>2022-07-05T12:59:29Z</time>
      </trkpt>
      <trkpt lat="42.57175" lon="2.38347">
        <ele>616</ele>
        <time>2022-07-05T12:59:42Z</time>
      </trkpt>
      <trkpt lat="42.57176" lon="2.38341">
        <ele>615</ele>
        <time>2022-07-05T12:59:48Z</time>
      </trkpt>
      <trkpt lat="42.57164" lon="2.38316">
        <ele>610</ele>
        <time>2022-07-05T13:00:18Z</time>
      </trkpt>
      <trkpt lat="42.57144" lon="2.38289">
        <ele>605</ele>
        <time>2022-07-05T13:00:55Z</time>
      </trkpt>
      <trkpt lat="42.57113" lon="2.38256">
        <ele>600</ele>
        <time>2022-07-05T13:01:48Z</time>
      </trkpt>
      <trkpt lat="42.57101" lon="2.38247">
        <ele>599</ele>
        <time>2022-07-05T13:02:06Z</time>
      </trkpt>
      <trkpt lat="42.5708" lon="2.3825">
        <ele>600</ele>
        <time>2022-07-05T13:02:34Z</time>
      </trkpt>
      <trkpt lat="42.57078" lon="2.38242">
        <ele>598</ele>
        <time>2022-07-05T13:02:43Z</time>
      </trkpt>
      <trkpt lat="42.57074" lon="2.38242">
        <ele>598</ele>
        <time>2022-07-05T13:02:48Z</time>
      </trkpt>
      <trkpt lat="42.57069" lon="2.38236">
        <ele>597</ele>
        <time>2022-07-05T13:02:57Z</time>
      </trkpt>
      <trkpt lat="42.57055" lon="2.38231">
        <ele>595</ele>
        <time>2022-07-05T13:03:16Z</time>
      </trkpt>
      <trkpt lat="42.57049" lon="2.38225">
        <ele>594</ele>
        <time>2022-07-05T13:03:26Z</time>
      </trkpt>
      <trkpt lat="42.57024" lon="2.3821">
        <ele>591</ele>
        <time>2022-07-05T13:04:03Z</time>
      </trkpt>
      <trkpt lat="42.57012" lon="2.382">
        <ele>589</ele>
        <time>2022-07-05T13:04:21Z</time>
      </trkpt>
      <trkpt lat="42.56994" lon="2.38176">
        <ele>587</ele>
        <time>2022-07-05T13:04:55Z</time>
      </trkpt>
      <trkpt lat="42.56964" lon="2.38148">
        <ele>577</ele>
        <time>2022-07-05T13:05:44Z</time>
      </trkpt>
      <trkpt lat="42.56953" lon="2.3815">
        <ele>574</ele>
        <time>2022-07-05T13:05:58Z</time>
      </trkpt>
      <trkpt lat="42.56921" lon="2.38172">
        <ele>569</ele>
        <time>2022-07-05T13:06:46Z</time>
      </trkpt>
      <trkpt lat="42.56878" lon="2.38195">
        <ele>559</ele>
        <time>2022-07-05T13:07:48Z</time>
      </trkpt>
      <trkpt lat="42.56869" lon="2.38209">
        <ele>558</ele>
        <time>2022-07-05T13:08:06Z</time>
      </trkpt>
      <trkpt lat="42.5686" lon="2.38218">
        <ele>556</ele>
        <time>2022-07-05T13:08:21Z</time>
      </trkpt>
      <trkpt lat="42.56862" lon="2.38217">
        <ele>557</ele>
        <time>2022-07-05T13:08:24Z</time>
      </trkpt>
      <trkpt lat="42.56841" lon="2.3823">
        <ele>552</ele>
        <time>2022-07-05T13:08:55Z</time>
      </trkpt>
      <trkpt lat="42.56819" lon="2.38239">
        <ele>550</ele>
        <time>2022-07-05T13:09:25Z</time>
      </trkpt>
      <trkpt lat="42.56809" lon="2.3824">
        <ele>550</ele>
        <time>2022-07-05T13:09:39Z</time>
      </trkpt>
      <trkpt lat="42.56786" lon="2.38262">
        <ele>549</ele>
        <time>2022-07-05T13:10:16Z</time>
      </trkpt>
      <trkpt lat="42.56774" lon="2.38255">
        <ele>548</ele>
        <time>2022-07-05T13:10:34Z</time>
      </trkpt>
      <trkpt lat="42.56768" lon="2.38257">
        <ele>548</ele>
        <time>2022-07-05T13:10:42Z</time>
      </trkpt>
      <trkpt lat="42.56753" lon="2.38255">
        <ele>546</ele>
        <time>2022-07-05T13:11:02Z</time>
      </trkpt>
      <trkpt lat="42.56747" lon="2.38257">
        <ele>547</ele>
        <time>2022-07-05T13:11:10Z</time>
      </trkpt>
      <trkpt lat="42.5674" lon="2.38228">
        <ele>548</ele>
        <time>2022-07-05T13:11:40Z</time>
      </trkpt>
      <trkpt lat="42.56737" lon="2.38232">
        <ele>549</ele>
        <time>2022-07-05T13:11:46Z</time>
      </trkpt>
      <trkpt lat="42.56723" lon="2.38226">
        <ele>552</ele>
        <time>2022-07-05T13:12:06Z</time>
      </trkpt>
      <trkpt lat="42.56715" lon="2.38214">
        <ele>553</ele>
        <time>2022-07-05T13:12:22Z</time>
      </trkpt>
      <trkpt lat="42.56704" lon="2.38205">
        <ele>556</ele>
        <time>2022-07-05T13:12:39Z</time>
      </trkpt>
      <trkpt lat="42.56684" lon="2.38197">
        <ele>560</ele>
        <time>2022-07-05T13:13:07Z</time>
      </trkpt>
      <trkpt lat="42.56685" lon="2.38193">
        <ele>560</ele>
        <time>2022-07-05T13:13:11Z</time>
      </trkpt>
      <trkpt lat="42.56687" lon="2.38195">
        <ele>559</ele>
        <time>2022-07-05T13:13:14Z</time>
      </trkpt>
      <trkpt lat="42.56684" lon="2.38196">
        <ele>560</ele>
        <time>2022-07-05T13:13:18Z</time>
      </trkpt>
      <trkpt lat="42.56677" lon="2.38193">
        <ele>561</ele>
        <time>2022-07-05T13:13:28Z</time>
      </trkpt>
      <trkpt lat="42.56675" lon="2.38148">
        <ele>561</ele>
        <time>2022-07-05T13:14:12Z</time>
      </trkpt>
      <trkpt lat="42.5669" lon="2.38145">
        <ele>557</ele>
        <time>2022-07-05T13:14:32Z</time>
      </trkpt>
      <trkpt lat="42.56696" lon="2.38153">
        <ele>556</ele>
        <time>2022-07-05T13:14:44Z</time>
      </trkpt>
      <trkpt lat="42.56691" lon="2.38124">
        <ele>557</ele>
        <time>2022-07-05T13:15:13Z</time>
      </trkpt>
      <trkpt lat="42.56679" lon="2.38091">
        <ele>558</ele>
        <time>2022-07-05T13:15:49Z</time>
      </trkpt>
      <trkpt lat="42.56675" lon="2.38067">
        <ele>558</ele>
        <time>2022-07-05T13:16:13Z</time>
      </trkpt>
      <trkpt lat="42.56655" lon="2.38013">
        <ele>556</ele>
        <time>2022-07-05T13:17:13Z</time>
      </trkpt>
      <trkpt lat="42.5664" lon="2.37998">
        <ele>555</ele>
        <time>2022-07-05T13:17:38Z</time>
      </trkpt>
      <trkpt lat="42.56637" lon="2.37989">
        <ele>555</ele>
        <time>2022-07-05T13:17:47Z</time>
      </trkpt>
      <trkpt lat="42.56639" lon="2.37968">
        <ele>553</ele>
        <time>2022-07-05T13:18:08Z</time>
      </trkpt>
      <trkpt lat="42.56644" lon="2.37957">
        <ele>552</ele>
        <time>2022-07-05T13:18:21Z</time>
      </trkpt>
      <trkpt lat="42.56645" lon="2.37936">
        <ele>550</ele>
        <time>2022-07-05T13:18:41Z</time>
      </trkpt>
      <trkpt lat="42.56652" lon="2.37904">
        <ele>546</ele>
        <time>2022-07-05T13:19:14Z</time>
      </trkpt>
      <trkpt lat="42.56661" lon="2.37886">
        <ele>544</ele>
        <time>2022-07-05T13:19:36Z</time>
      </trkpt>
      <trkpt lat="42.56653" lon="2.37882">
        <ele>543</ele>
        <time>2022-07-05T13:19:47Z</time>
      </trkpt>
      <trkpt lat="42.56667" lon="2.37866">
        <ele>541</ele>
        <time>2022-07-05T13:20:11Z</time>
      </trkpt>
      <trkpt lat="42.56667" lon="2.37861">
        <ele>540</ele>
        <time>2022-07-05T13:20:16Z</time>
      </trkpt>
      <trkpt lat="42.56659" lon="2.3786">
        <ele>540</ele>
        <time>2022-07-05T13:20:27Z</time>
      </trkpt>
      <trkpt lat="42.56653" lon="2.37842">
        <ele>537</ele>
        <time>2022-07-05T13:20:47Z</time>
      </trkpt>
      <trkpt lat="42.56665" lon="2.37823">
        <ele>535</ele>
        <time>2022-07-05T13:21:11Z</time>
      </trkpt>
      <trkpt lat="42.56667" lon="2.37811">
        <ele>534</ele>
        <time>2022-07-05T13:21:23Z</time>
      </trkpt>
      <trkpt lat="42.56666" lon="2.37784">
        <ele>532</ele>
        <time>2022-07-05T13:21:50Z</time>
      </trkpt>
      <trkpt lat="42.56699" lon="2.37612">
        <ele>523</ele>
        <time>2022-07-05T13:24:44Z</time>
      </trkpt>
      <trkpt lat="42.56702" lon="2.37582">
        <ele>522</ele>
        <time>2022-07-05T13:25:14Z</time>
      </trkpt>
      <trkpt lat="42.56703" lon="2.37523">
        <ele>522</ele>
        <time>2022-07-05T13:26:12Z</time>
      </trkpt>
      <trkpt lat="42.56696" lon="2.37508">
        <ele>522</ele>
        <time>2022-07-05T13:26:30Z</time>
      </trkpt>
      <trkpt lat="42.56684" lon="2.37492">
        <ele>523</ele>
        <time>2022-07-05T13:26:52Z</time>
      </trkpt>
      <trkpt lat="42.56675" lon="2.37463">
        <ele>524</ele>
        <time>2022-07-05T13:27:23Z</time>
      </trkpt>
      <trkpt lat="42.56673" lon="2.37434">
        <ele>524</ele>
        <time>2022-07-05T13:27:52Z</time>
      </trkpt>
      <trkpt lat="42.56666" lon="2.37395">
        <ele>524</ele>
        <time>2022-07-05T13:28:31Z</time>
      </trkpt>
      <trkpt lat="42.56667" lon="2.37379">
        <ele>523</ele>
        <time>2022-07-05T13:28:47Z</time>
      </trkpt>
      <trkpt lat="42.56658" lon="2.3735">
        <ele>523</ele>
        <time>2022-07-05T13:29:18Z</time>
      </trkpt>
      <trkpt lat="42.56664" lon="2.37293">
        <ele>518</ele>
        <time>2022-07-05T13:30:14Z</time>
      </trkpt>
      <trkpt lat="42.56673" lon="2.37266">
        <ele>516</ele>
        <time>2022-07-05T13:30:44Z</time>
      </trkpt>
      <trkpt lat="42.56687" lon="2.3724">
        <ele>514</ele>
        <time>2022-07-05T13:31:15Z</time>
      </trkpt>
      <trkpt lat="42.567" lon="2.37202">
        <ele>514</ele>
        <time>2022-07-05T13:31:56Z</time>
      </trkpt>
      <trkpt lat="42.56708" lon="2.37161">
        <ele>516</ele>
        <time>2022-07-05T13:32:38Z</time>
      </trkpt>
      <trkpt lat="42.56715" lon="2.37139">
        <ele>520</ele>
        <time>2022-07-05T13:33:02Z</time>
      </trkpt>
      <trkpt lat="42.56725" lon="2.37121">
        <ele>525</ele>
        <time>2022-07-05T13:33:24Z</time>
      </trkpt>
      <trkpt lat="42.56721" lon="2.37097">
        <ele>530</ele>
        <time>2022-07-05T13:33:48Z</time>
      </trkpt>
      <trkpt lat="42.56726" lon="2.37083">
        <ele>534</ele>
        <time>2022-07-05T13:34:03Z</time>
      </trkpt>
      <trkpt lat="42.56737" lon="2.37068">
        <ele>539</ele>
        <time>2022-07-05T13:34:24Z</time>
      </trkpt>
      <trkpt lat="42.56749" lon="2.37062">
        <ele>542</ele>
        <time>2022-07-05T13:34:41Z</time>
      </trkpt>
      <trkpt lat="42.56778" lon="2.37063">
        <ele>545</ele>
        <time>2022-07-05T13:35:20Z</time>
      </trkpt>
      <trkpt lat="42.56797" lon="2.37059">
        <ele>549</ele>
        <time>2022-07-05T13:35:45Z</time>
      </trkpt>
      <trkpt lat="42.56816" lon="2.3707">
        <ele>548</ele>
        <time>2022-07-05T13:36:13Z</time>
      </trkpt>
      <trkpt lat="42.56823" lon="2.3706">
        <ele>552</ele>
        <time>2022-07-05T13:36:27Z</time>
      </trkpt>
      <trkpt lat="42.5682" lon="2.37051">
        <ele>554</ele>
        <time>2022-07-05T13:36:36Z</time>
      </trkpt>
      <trkpt lat="42.56807" lon="2.37038">
        <ele>556</ele>
        <time>2022-07-05T13:36:58Z</time>
      </trkpt>
      <trkpt lat="42.56806" lon="2.37017">
        <ele>561</ele>
        <time>2022-07-05T13:37:19Z</time>
      </trkpt>
      <trkpt lat="42.56813" lon="2.36985">
        <ele>570</ele>
        <time>2022-07-05T13:37:51Z</time>
      </trkpt>
      <trkpt lat="42.56814" lon="2.36969">
        <ele>575</ele>
        <time>2022-07-05T13:38:07Z</time>
      </trkpt>
      <trkpt lat="42.56807" lon="2.3695">
        <ele>579</ele>
        <time>2022-07-05T13:38:28Z</time>
      </trkpt>
      <trkpt lat="42.56799" lon="2.3694">
        <ele>581</ele>
        <time>2022-07-05T13:38:43Z</time>
      </trkpt>
      <trkpt lat="42.56793" lon="2.36924">
        <ele>585</ele>
        <time>2022-07-05T13:39:00Z</time>
      </trkpt>
      <trkpt lat="42.56791" lon="2.36908">
        <ele>589</ele>
        <time>2022-07-05T13:39:16Z</time>
      </trkpt>
      <trkpt lat="42.56793" lon="2.36871">
        <ele>599</ele>
        <time>2022-07-05T13:39:53Z</time>
      </trkpt>
      <trkpt lat="42.56791" lon="2.3685">
        <ele>605</ele>
        <time>2022-07-05T13:40:13Z</time>
      </trkpt>
      <trkpt lat="42.5678" lon="2.36818">
        <ele>612</ele>
        <time>2022-07-05T13:40:48Z</time>
      </trkpt>
      <trkpt lat="42.56778" lon="2.36802">
        <ele>615</ele>
        <time>2022-07-05T13:41:04Z</time>
      </trkpt>
      <trkpt lat="42.5678" lon="2.36789">
        <ele>618</ele>
        <time>2022-07-05T13:41:17Z</time>
      </trkpt>
      <trkpt lat="42.56769" lon="2.36705">
        <ele>629</ele>
        <time>2022-07-05T13:42:41Z</time>
      </trkpt>
      <trkpt lat="42.56773" lon="2.36658">
        <ele>630</ele>
        <time>2022-07-05T13:43:27Z</time>
      </trkpt>
      <trkpt lat="42.56781" lon="2.36656">
        <ele>630</ele>
        <time>2022-07-05T13:43:38Z</time>
      </trkpt>
      <trkpt lat="42.56778" lon="2.36662">
        <ele>630</ele>
        <time>2022-07-05T13:43:45Z</time>
      </trkpt>
      <trkpt lat="42.56781" lon="2.36659">
        <ele>630</ele>
        <time>2022-07-05T13:43:50Z</time>
      </trkpt>
      <trkpt lat="42.56783" lon="2.36663">
        <ele>631</ele>
        <time>2022-07-05T13:43:55Z</time>
      </trkpt>
      <trkpt lat="42.5678" lon="2.36661">
        <ele>630</ele>
        <time>2022-07-05T13:44:00Z</time>
      </trkpt>
      <trkpt lat="42.56779" lon="2.36664">
        <ele>631</ele>
        <time>2022-07-05T13:44:03Z</time>
      </trkpt>
      <trkpt lat="42.56789" lon="2.36661">
        <ele>631</ele>
        <time>2022-07-05T13:44:17Z</time>
      </trkpt>
      <trkpt lat="42.56807" lon="2.36662">
        <ele>631</ele>
        <time>2022-07-05T13:44:41Z</time>
      </trkpt>
      <trkpt lat="42.56847" lon="2.36659">
        <ele>633</ele>
        <time>2022-07-05T13:45:34Z</time>
      </trkpt>
      <trkpt lat="42.56878" lon="2.36655">
        <ele>636</ele>
        <time>2022-07-05T13:46:16Z</time>
      </trkpt>
      <trkpt lat="42.56895" lon="2.3665">
        <ele>638</ele>
        <time>2022-07-05T13:46:39Z</time>
      </trkpt>
      <trkpt lat="42.56936" lon="2.36649">
        <ele>643</ele>
        <time>2022-07-05T13:47:34Z</time>
      </trkpt>
      <trkpt lat="42.56948" lon="2.36643">
        <ele>644</ele>
        <time>2022-07-05T13:47:51Z</time>
      </trkpt>
      <trkpt lat="42.56975" lon="2.36605">
        <ele>646</ele>
        <time>2022-07-05T13:48:42Z</time>
      </trkpt>
      <trkpt lat="42.56988" lon="2.36594">
        <ele>648</ele>
        <time>2022-07-05T13:49:03Z</time>
      </trkpt>
      <trkpt lat="42.5701" lon="2.3658">
        <ele>650</ele>
        <time>2022-07-05T13:49:35Z</time>
      </trkpt>
      <trkpt lat="42.57028" lon="2.36562">
        <ele>651</ele>
        <time>2022-07-05T13:50:05Z</time>
      </trkpt>
      <trkpt lat="42.57046" lon="2.36551">
        <ele>653</ele>
        <time>2022-07-05T13:50:32Z</time>
      </trkpt>
      <trkpt lat="42.57065" lon="2.36543">
        <ele>656</ele>
        <time>2022-07-05T13:50:58Z</time>
      </trkpt>
      <trkpt lat="42.57084" lon="2.3653">
        <ele>657</ele>
        <time>2022-07-05T13:51:26Z</time>
      </trkpt>
      <trkpt lat="42.57102" lon="2.36508">
        <ele>658</ele>
        <time>2022-07-05T13:51:59Z</time>
      </trkpt>
      <trkpt lat="42.5714" lon="2.3644">
        <ele>656</ele>
        <time>2022-07-05T13:53:23Z</time>
      </trkpt>
      <trkpt lat="42.57163" lon="2.36428">
        <ele>659</ele>
        <time>2022-07-05T13:53:56Z</time>
      </trkpt>
      <trkpt lat="42.57221" lon="2.36451">
        <ele>669</ele>
        <time>2022-07-05T13:55:16Z</time>
      </trkpt>
      <trkpt lat="42.57243" lon="2.36463">
        <ele>673</ele>
        <time>2022-07-05T13:55:48Z</time>
      </trkpt>
      <trkpt lat="42.57287" lon="2.36498">
        <ele>679</ele>
        <time>2022-07-05T13:56:56Z</time>
      </trkpt>
      <trkpt lat="42.57308" lon="2.36516">
        <ele>683</ele>
        <time>2022-07-05T13:57:29Z</time>
      </trkpt>
      <trkpt lat="42.5731" lon="2.3652">
        <ele>684</ele>
        <time>2022-07-05T13:57:34Z</time>
      </trkpt>
      <trkpt lat="42.57307" lon="2.36525">
        <ele>685</ele>
        <time>2022-07-05T13:57:40Z</time>
      </trkpt>
      <trkpt lat="42.57268" lon="2.36522">
        <ele>683</ele>
        <time>2022-07-05T13:58:32Z</time>
      </trkpt>
      <trkpt lat="42.57245" lon="2.36534">
        <ele>683</ele>
        <time>2022-07-05T13:59:05Z</time>
      </trkpt>
      <trkpt lat="42.57224" lon="2.3656">
        <ele>684</ele>
        <time>2022-07-05T13:59:43Z</time>
      </trkpt>
      <trkpt lat="42.57217" lon="2.36579">
        <ele>685</ele>
        <time>2022-07-05T14:00:04Z</time>
      </trkpt>
      <trkpt lat="42.57216" lon="2.36602">
        <ele>686</ele>
        <time>2022-07-05T14:00:27Z</time>
      </trkpt>
      <trkpt lat="42.57218" lon="2.36616">
        <ele>686</ele>
        <time>2022-07-05T14:00:41Z</time>
      </trkpt>
      <trkpt lat="42.57231" lon="2.36642">
        <ele>689</ele>
        <time>2022-07-05T14:01:11Z</time>
      </trkpt>
      <trkpt lat="42.57256" lon="2.36651">
        <ele>694</ele>
        <time>2022-07-05T14:01:46Z</time>
      </trkpt>
      <trkpt lat="42.57326" lon="2.36693">
        <ele>701</ele>
        <time>2022-07-05T14:03:28Z</time>
      </trkpt>
      <trkpt lat="42.57344" lon="2.36694">
        <ele>704</ele>
        <time>2022-07-05T14:03:52Z</time>
      </trkpt>
      <trkpt lat="42.57381" lon="2.36665">
        <ele>715</ele>
        <time>2022-07-05T14:04:49Z</time>
      </trkpt>
      <trkpt lat="42.57387" lon="2.36664">
        <ele>716</ele>
        <time>2022-07-05T14:04:57Z</time>
      </trkpt>
      <trkpt lat="42.57412" lon="2.36671">
        <ele>719</ele>
        <time>2022-07-05T14:05:31Z</time>
      </trkpt>
      <trkpt lat="42.57454" lon="2.36708">
        <ele>722</ele>
        <time>2022-07-05T14:06:38Z</time>
      </trkpt>
      <trkpt lat="42.57482" lon="2.36743">
        <ele>725</ele>
        <time>2022-07-05T14:07:29Z</time>
      </trkpt>
      <trkpt lat="42.57517" lon="2.36798">
        <ele>723</ele>
        <time>2022-07-05T14:08:40Z</time>
      </trkpt>
      <trkpt lat="42.57561" lon="2.36852">
        <ele>725</ele>
        <time>2022-07-05T14:09:59Z</time>
      </trkpt>
      <trkpt lat="42.5758" lon="2.36865">
        <ele>729</ele>
        <time>2022-07-05T14:10:28Z</time>
      </trkpt>
      <trkpt lat="42.57596" lon="2.36861">
        <ele>731</ele>
        <time>2022-07-05T14:10:50Z</time>
      </trkpt>
      <trkpt lat="42.57641" lon="2.36829">
        <ele>734</ele>
        <time>2022-07-05T14:11:57Z</time>
      </trkpt>
      <trkpt lat="42.57644" lon="2.3683">
        <ele>734</ele>
        <time>2022-07-05T14:12:01Z</time>
      </trkpt>
      <trkpt lat="42.57658" lon="2.36816">
        <ele>736</ele>
        <time>2022-07-05T14:12:25Z</time>
      </trkpt>
      <trkpt lat="42.57661" lon="2.36817">
        <ele>736</ele>
        <time>2022-07-05T14:12:29Z</time>
      </trkpt>
      <trkpt lat="42.57661" lon="2.3682">
        <ele>735</ele>
        <time>2022-07-05T14:12:32Z</time>
      </trkpt>
      <trkpt lat="42.57664" lon="2.3682">
        <ele>735</ele>
        <time>2022-07-05T14:12:36Z</time>
      </trkpt>
      <trkpt lat="42.57662" lon="2.36822">
        <ele>735</ele>
        <time>2022-07-05T14:12:39Z</time>
      </trkpt>
      <trkpt lat="42.57659" lon="2.3682">
        <ele>735</ele>
        <time>2022-07-05T14:12:43Z</time>
      </trkpt>
      <trkpt lat="42.5766" lon="2.36813">
        <ele>736</ele>
        <time>2022-07-05T14:12:50Z</time>
      </trkpt>
      <trkpt lat="42.57658" lon="2.36813">
        <ele>736</ele>
        <time>2022-07-05T14:12:53Z</time>
      </trkpt>
      <trkpt lat="42.57658" lon="2.36815">
        <ele>736</ele>
        <time>2022-07-05T14:12:55Z</time>
      </trkpt>
      <trkpt lat="42.5766" lon="2.36811">
        <ele>736</ele>
        <time>2022-07-05T14:13:00Z</time>
      </trkpt>
      <trkpt lat="42.57658" lon="2.36811">
        <ele>736</ele>
        <time>2022-07-05T14:13:03Z</time>
      </trkpt>
      <trkpt lat="42.57662" lon="2.36819">
        <ele>735</ele>
        <time>2022-07-05T14:13:12Z</time>
      </trkpt>
      <trkpt lat="42.57661" lon="2.36815">
        <ele>736</ele>
        <time>2022-07-05T14:13:16Z</time>
      </trkpt>
      <trkpt lat="42.57668" lon="2.36812">
        <ele>736</ele>
        <time>2022-07-05T14:13:26Z</time>
      </trkpt>
      <trkpt lat="42.57688" lon="2.36787">
        <ele>736</ele>
        <time>2022-07-05T14:14:02Z</time>
      </trkpt>
      <trkpt lat="42.57698" lon="2.36757">
        <ele>737</ele>
        <time>2022-07-05T14:14:35Z</time>
      </trkpt>
      <trkpt lat="42.57714" lon="2.36721">
        <ele>739</ele>
        <time>2022-07-05T14:15:16Z</time>
      </trkpt>
      <trkpt lat="42.57729" lon="2.36703">
        <ele>739</ele>
        <time>2022-07-05T14:15:43Z</time>
      </trkpt>
      <trkpt lat="42.57768" lon="2.36685">
        <ele>737</ele>
        <time>2022-07-05T14:16:38Z</time>
      </trkpt>
      <trkpt lat="42.57784" lon="2.36672">
        <ele>737</ele>
        <time>2022-07-05T14:17:03Z</time>
      </trkpt>
      <trkpt lat="42.57796" lon="2.36667">
        <ele>737</ele>
        <time>2022-07-05T14:17:19Z</time>
      </trkpt>
      <trkpt lat="42.57806" lon="2.36657">
        <ele>739</ele>
        <time>2022-07-05T14:17:36Z</time>
      </trkpt>
      <trkpt lat="42.57817" lon="2.3664">
        <ele>742</ele>
        <time>2022-07-05T14:17:58Z</time>
      </trkpt>
      <trkpt lat="42.57816" lon="2.36642">
        <ele>742</ele>
        <time>2022-07-05T14:18:00Z</time>
      </trkpt>
      <trkpt lat="42.57813" lon="2.3664">
        <ele>742</ele>
        <time>2022-07-05T14:18:05Z</time>
      </trkpt>
      <trkpt lat="42.57818" lon="2.36645">
        <ele>741</ele>
        <time>2022-07-05T14:18:13Z</time>
      </trkpt>
      <trkpt lat="42.57816" lon="2.36641">
        <ele>742</ele>
        <time>2022-07-05T14:18:18Z</time>
      </trkpt>
      <trkpt lat="42.5782" lon="2.3664">
        <ele>742</ele>
        <time>2022-07-05T14:18:23Z</time>
      </trkpt>
      <trkpt lat="42.57825" lon="2.36633">
        <ele>743</ele>
        <time>2022-07-05T14:18:33Z</time>
      </trkpt>
      <trkpt lat="42.57845" lon="2.36578">
        <ele>755</ele>
        <time>2022-07-05T14:19:33Z</time>
      </trkpt>
      <trkpt lat="42.57852" lon="2.36569">
        <ele>756</ele>
        <time>2022-07-05T14:19:46Z</time>
      </trkpt>
      <trkpt lat="42.57865" lon="2.36556">
        <ele>757</ele>
        <time>2022-07-05T14:20:08Z</time>
      </trkpt>
      <trkpt lat="42.57901" lon="2.36511">
        <ele>763</ele>
        <time>2022-07-05T14:21:13Z</time>
      </trkpt>
      <trkpt lat="42.57916" lon="2.365">
        <ele>765</ele>
        <time>2022-07-05T14:21:36Z</time>
      </trkpt>
      <trkpt lat="42.57933" lon="2.36492">
        <ele>766</ele>
        <time>2022-07-05T14:22:00Z</time>
      </trkpt>
      <trkpt lat="42.57971" lon="2.36464">
        <ele>769</ele>
        <time>2022-07-05T14:22:57Z</time>
      </trkpt>
      <trkpt lat="42.57983" lon="2.36447">
        <ele>769</ele>
        <time>2022-07-05T14:23:21Z</time>
      </trkpt>
      <trkpt lat="42.57959" lon="2.36414">
        <ele>774</ele>
        <time>2022-07-05T14:24:06Z</time>
      </trkpt>
      <trkpt lat="42.57949" lon="2.36411">
        <ele>775</ele>
        <time>2022-07-05T14:24:20Z</time>
      </trkpt>
      <trkpt lat="42.57922" lon="2.36413">
        <ele>778</ele>
        <time>2022-07-05T14:24:56Z</time>
      </trkpt>
      <trkpt lat="42.57917" lon="2.3641">
        <ele>779</ele>
        <time>2022-07-05T14:25:03Z</time>
      </trkpt>
      <trkpt lat="42.57915" lon="2.364">
        <ele>780</ele>
        <time>2022-07-05T14:25:13Z</time>
      </trkpt>
      <trkpt lat="42.57904" lon="2.36377">
        <ele>780</ele>
        <time>2022-07-05T14:25:40Z</time>
      </trkpt>
      <trkpt lat="42.57897" lon="2.36344">
        <ele>782</ele>
        <time>2022-07-05T14:26:14Z</time>
      </trkpt>
      <trkpt lat="42.57888" lon="2.36324">
        <ele>781</ele>
        <time>2022-07-05T14:26:37Z</time>
      </trkpt>
      <trkpt lat="42.57887" lon="2.36326">
        <ele>782</ele>
        <time>2022-07-05T14:26:39Z</time>
      </trkpt>
      <trkpt lat="42.57896" lon="2.36307">
        <ele>779</ele>
        <time>2022-07-05T14:27:02Z</time>
      </trkpt>
      <trkpt lat="42.57896" lon="2.36299">
        <ele>778</ele>
        <time>2022-07-05T14:27:09Z</time>
      </trkpt>
      <trkpt lat="42.579" lon="2.3632">
        <ele>781</ele>
        <time>2022-07-05T14:27:31Z</time>
      </trkpt>
      <trkpt lat="42.57901" lon="2.3637">
        <ele>781</ele>
        <time>2022-07-05T14:28:20Z</time>
      </trkpt>
      <trkpt lat="42.57907" lon="2.36406">
        <ele>779</ele>
        <time>2022-07-05T14:28:56Z</time>
      </trkpt>
      <trkpt lat="42.57925" lon="2.36414">
        <ele>778</ele>
        <time>2022-07-05T14:29:21Z</time>
      </trkpt>
      <trkpt lat="42.57953" lon="2.36422">
        <ele>774</ele>
        <time>2022-07-05T14:30:00Z</time>
      </trkpt>
      <trkpt lat="42.57969" lon="2.36442">
        <ele>771</ele>
        <time>2022-07-05T14:30:29Z</time>
      </trkpt>
      <trkpt lat="42.57979" lon="2.36446">
        <ele>770</ele>
        <time>2022-07-05T14:30:43Z</time>
      </trkpt>
      <trkpt lat="42.57982" lon="2.36444">
        <ele>770</ele>
        <time>2022-07-05T14:30:47Z</time>
      </trkpt>
      <trkpt lat="42.57965" lon="2.36386">
        <ele>770</ele>
        <time>2022-07-05T14:31:48Z</time>
      </trkpt>
      <trkpt lat="42.57946" lon="2.36357">
        <ele>773</ele>
        <time>2022-07-05T14:32:27Z</time>
      </trkpt>
      <trkpt lat="42.57905" lon="2.36276">
        <ele>774</ele>
        <time>2022-07-05T14:34:03Z</time>
      </trkpt>
      <trkpt lat="42.57902" lon="2.36261">
        <ele>773</ele>
        <time>2022-07-05T14:34:18Z</time>
      </trkpt>
      <trkpt lat="42.57905" lon="2.36209">
        <ele>762</ele>
        <time>2022-07-05T14:35:10Z</time>
      </trkpt>
      <trkpt lat="42.57906" lon="2.36223">
        <ele>765</ele>
        <time>2022-07-05T14:35:23Z</time>
      </trkpt>
      <trkpt lat="42.57916" lon="2.36248">
        <ele>769</ele>
        <time>2022-07-05T14:35:51Z</time>
      </trkpt>
      <trkpt lat="42.57937" lon="2.36273">
        <ele>763</ele>
        <time>2022-07-05T14:36:29Z</time>
      </trkpt>
      <trkpt lat="42.57939" lon="2.36294">
        <ele>766</ele>
        <time>2022-07-05T14:36:50Z</time>
      </trkpt>
      <trkpt lat="42.57946" lon="2.36321">
        <ele>769</ele>
        <time>2022-07-05T14:37:18Z</time>
      </trkpt>
      <trkpt lat="42.57962" lon="2.36347">
        <ele>767</ele>
        <time>2022-07-05T14:37:51Z</time>
      </trkpt>
      <trkpt lat="42.5798" lon="2.36361">
        <ele>764</ele>
        <time>2022-07-05T14:38:19Z</time>
      </trkpt>
      <trkpt lat="42.58055" lon="2.36401">
        <ele>744</ele>
        <time>2022-07-05T14:40:06Z</time>
      </trkpt>
      <trkpt lat="42.5809" lon="2.36428">
        <ele>737</ele>
        <time>2022-07-05T14:41:00Z</time>
      </trkpt>
      <trkpt lat="42.58135" lon="2.36433">
        <ele>714</ele>
        <time>2022-07-05T14:42:00Z</time>
      </trkpt>
      <trkpt lat="42.58146" lon="2.36423">
        <ele>704</ele>
        <time>2022-07-05T14:42:18Z</time>
      </trkpt>
      <trkpt lat="42.58134" lon="2.36414">
        <ele>708</ele>
        <time>2022-07-05T14:42:36Z</time>
      </trkpt>
      <trkpt lat="42.58121" lon="2.36392">
        <ele>706</ele>
        <time>2022-07-05T14:43:04Z</time>
      </trkpt>
      <trkpt lat="42.58109" lon="2.36359">
        <ele>699</ele>
        <time>2022-07-05T14:43:40Z</time>
      </trkpt>
      <trkpt lat="42.58112" lon="2.3635">
        <ele>693</ele>
        <time>2022-07-05T14:43:50Z</time>
      </trkpt>
      <trkpt lat="42.58121" lon="2.36363">
        <ele>693</ele>
        <time>2022-07-05T14:44:07Z</time>
      </trkpt>
      <trkpt lat="42.58124" lon="2.36352">
        <ele>686</ele>
        <time>2022-07-05T14:44:19Z</time>
      </trkpt>
      <trkpt lat="42.58128" lon="2.36364">
        <ele>689</ele>
        <time>2022-07-05T14:44:32Z</time>
      </trkpt>
      <trkpt lat="42.58133" lon="2.36356">
        <ele>683</ele>
        <time>2022-07-05T14:44:42Z</time>
      </trkpt>
      <trkpt lat="42.58133" lon="2.36327">
        <ele>670</ele>
        <time>2022-07-05T14:45:10Z</time>
      </trkpt>
      <trkpt lat="42.58117" lon="2.36316">
        <ele>675</ele>
        <time>2022-07-05T14:45:34Z</time>
      </trkpt>
      <trkpt lat="42.58118" lon="2.3631">
        <ele>671</ele>
        <time>2022-07-05T14:45:40Z</time>
      </trkpt>
      <trkpt lat="42.58107" lon="2.36307">
        <ele>676</ele>
        <time>2022-07-05T14:45:55Z</time>
      </trkpt>
      <trkpt lat="42.58113" lon="2.36295">
        <ele>667</ele>
        <time>2022-07-05T14:46:10Z</time>
      </trkpt>
      <trkpt lat="42.581" lon="2.3629">
        <ele>673</ele>
        <time>2022-07-05T14:46:28Z</time>
      </trkpt>
      <trkpt lat="42.58088" lon="2.36276">
        <ele>673</ele>
        <time>2022-07-05T14:46:49Z</time>
      </trkpt>
      <trkpt lat="42.5809" lon="2.36269">
        <ele>669</ele>
        <time>2022-07-05T14:46:56Z</time>
      </trkpt>
      <trkpt lat="42.58109" lon="2.36281">
        <ele>663</ele>
        <time>2022-07-05T14:47:24Z</time>
      </trkpt>
      <trkpt lat="42.58094" lon="2.36253">
        <ele>659</ele>
        <time>2022-07-05T14:47:58Z</time>
      </trkpt>
      <trkpt lat="42.581" lon="2.3625">
        <ele>654</ele>
        <time>2022-07-05T14:48:07Z</time>
      </trkpt>
      <trkpt lat="42.58116" lon="2.36254">
        <ele>647</ele>
        <time>2022-07-05T14:48:28Z</time>
      </trkpt>
      <trkpt lat="42.58102" lon="2.3623">
        <ele>647</ele>
        <time>2022-07-05T14:48:59Z</time>
      </trkpt>
      <trkpt lat="42.58097" lon="2.36213">
        <ele>646</ele>
        <time>2022-07-05T14:49:16Z</time>
      </trkpt>
      <trkpt lat="42.58093" lon="2.36174">
        <ele>637</ele>
        <time>2022-07-05T14:49:55Z</time>
      </trkpt>
      <trkpt lat="42.58107" lon="2.36192">
        <ele>633</ele>
        <time>2022-07-05T14:50:21Z</time>
      </trkpt>
      <trkpt lat="42.58138" lon="2.36216">
        <ele>621</ele>
        <time>2022-07-05T14:51:09Z</time>
      </trkpt>
      <trkpt lat="42.58139" lon="2.36208">
        <ele>617</ele>
        <time>2022-07-05T14:51:17Z</time>
      </trkpt>
      <trkpt lat="42.58134" lon="2.36197">
        <ele>617</ele>
        <time>2022-07-05T14:51:29Z</time>
      </trkpt>
      <trkpt lat="42.58126" lon="2.36151">
        <ele>607</ele>
        <time>2022-07-05T14:52:16Z</time>
      </trkpt>
      <trkpt lat="42.58115" lon="2.36132">
        <ele>609</ele>
        <time>2022-07-05T14:52:39Z</time>
      </trkpt>
      <trkpt lat="42.58116" lon="2.36114">
        <ele>603</ele>
        <time>2022-07-05T14:52:57Z</time>
      </trkpt>
      <trkpt lat="42.58128" lon="2.36121">
        <ele>597</ele>
        <time>2022-07-05T14:53:15Z</time>
      </trkpt>
      <trkpt lat="42.58144" lon="2.36142">
        <ele>592</ele>
        <time>2022-07-05T14:53:44Z</time>
      </trkpt>
      <trkpt lat="42.58159" lon="2.36175">
        <ele>592</ele>
        <time>2022-07-05T14:54:22Z</time>
      </trkpt>
      <trkpt lat="42.58174" lon="2.36194">
        <ele>588</ele>
        <time>2022-07-05T14:54:50Z</time>
      </trkpt>
      <trkpt lat="42.58202" lon="2.36213">
        <ele>574</ele>
        <time>2022-07-05T14:55:31Z</time>
      </trkpt>
      <trkpt lat="42.58215" lon="2.36231">
        <ele>571</ele>
        <time>2022-07-05T14:55:56Z</time>
      </trkpt>
      <trkpt lat="42.58222" lon="2.36233">
        <ele>566</ele>
        <time>2022-07-05T14:56:06Z</time>
      </trkpt>
      <trkpt lat="42.58239" lon="2.3623">
        <ele>552</ele>
        <time>2022-07-05T14:56:29Z</time>
      </trkpt>
      <trkpt lat="42.58242" lon="2.36232">
        <ele>550</ele>
        <time>2022-07-05T14:56:33Z</time>
      </trkpt>
      <trkpt lat="42.58224" lon="2.36215">
        <ele>558</ele>
        <time>2022-07-05T14:57:02Z</time>
      </trkpt>
      <trkpt lat="42.58197" lon="2.36162">
        <ele>559</ele>
        <time>2022-07-05T14:58:06Z</time>
      </trkpt>
      <trkpt lat="42.58191" lon="2.36139">
        <ele>558</ele>
        <time>2022-07-05T14:58:30Z</time>
      </trkpt>
      <trkpt lat="42.58192" lon="2.36103">
        <ele>547</ele>
        <time>2022-07-05T14:59:05Z</time>
      </trkpt>
      <trkpt lat="42.58187" lon="2.36078">
        <ele>544</ele>
        <time>2022-07-05T14:59:31Z</time>
      </trkpt>
      <trkpt lat="42.58187" lon="2.36066">
        <ele>541</ele>
        <time>2022-07-05T14:59:42Z</time>
      </trkpt>
      <trkpt lat="42.58199" lon="2.36075">
        <ele>536</ele>
        <time>2022-07-05T15:00:01Z</time>
      </trkpt>
      <trkpt lat="42.5821" lon="2.36102">
        <ele>535</ele>
        <time>2022-07-05T15:00:31Z</time>
      </trkpt>
      <trkpt lat="42.5822" lon="2.36114">
        <ele>532</ele>
        <time>2022-07-05T15:00:49Z</time>
      </trkpt>
      <trkpt lat="42.58228" lon="2.36118">
        <ele>527</ele>
        <time>2022-07-05T15:01:00Z</time>
      </trkpt>
      <trkpt lat="42.58237" lon="2.36119">
        <ele>521</ele>
        <time>2022-07-05T15:01:12Z</time>
      </trkpt>
      <trkpt lat="42.58256" lon="2.36145">
        <ele>513</ele>
        <time>2022-07-05T15:01:48Z</time>
      </trkpt>
      <trkpt lat="42.58272" lon="2.3614">
        <ele>502</ele>
        <time>2022-07-05T15:02:10Z</time>
      </trkpt>
      <trkpt lat="42.58281" lon="2.3616">
        <ele>500</ele>
        <time>2022-07-05T15:02:33Z</time>
      </trkpt>
      <trkpt lat="42.58326" lon="2.36192">
        <ele>483</ele>
        <time>2022-07-05T15:03:41Z</time>
      </trkpt>
      <trkpt lat="42.58336" lon="2.36191">
        <ele>477</ele>
        <time>2022-07-05T15:03:54Z</time>
      </trkpt>
      <trkpt lat="42.58345" lon="2.36196">
        <ele>476</ele>
        <time>2022-07-05T15:04:07Z</time>
      </trkpt>
      <trkpt lat="42.58351" lon="2.3619">
        <ele>471</ele>
        <time>2022-07-05T15:04:17Z</time>
      </trkpt>
      <trkpt lat="42.58372" lon="2.36198">
        <ele>467</ele>
        <time>2022-07-05T15:04:46Z</time>
      </trkpt>
      <trkpt lat="42.5837" lon="2.36196">
        <ele>467</ele>
        <time>2022-07-05T15:04:50Z</time>
      </trkpt>
      <trkpt lat="42.58375" lon="2.362">
        <ele>466</ele>
        <time>2022-07-05T15:04:57Z</time>
      </trkpt>
      <trkpt lat="42.58384" lon="2.36198">
        <ele>462</ele>
        <time>2022-07-05T15:05:10Z</time>
      </trkpt>
      <trkpt lat="42.58392" lon="2.36164">
        <ele>452</ele>
        <time>2022-07-05T15:05:45Z</time>
      </trkpt>
      <trkpt lat="42.58394" lon="2.36141">
        <ele>450</ele>
        <time>2022-07-05T15:06:07Z</time>
      </trkpt>
      <trkpt lat="42.58404" lon="2.36124">
        <ele>447</ele>
        <time>2022-07-05T15:06:29Z</time>
      </trkpt>
      <trkpt lat="42.58416" lon="2.36089">
        <ele>444</ele>
        <time>2022-07-05T15:07:07Z</time>
      </trkpt>
      <trkpt lat="42.58425" lon="2.36085">
        <ele>446</ele>
        <time>2022-07-05T15:07:19Z</time>
      </trkpt>
      <trkpt lat="42.58442" lon="2.36102">
        <ele>449</ele>
        <time>2022-07-05T15:07:48Z</time>
      </trkpt>
      <trkpt lat="42.58452" lon="2.36121">
        <ele>451</ele>
        <time>2022-07-05T15:08:10Z</time>
      </trkpt>
      <trkpt lat="42.58468" lon="2.36161">
        <ele>452</ele>
        <time>2022-07-05T15:08:55Z</time>
      </trkpt>
      <trkpt lat="42.58472" lon="2.3618">
        <ele>452</ele>
        <time>2022-07-05T15:09:15Z</time>
      </trkpt>
      <trkpt lat="42.58496" lon="2.36225">
        <ele>451</ele>
        <time>2022-07-05T15:10:09Z</time>
      </trkpt>
      <trkpt lat="42.58518" lon="2.36247">
        <ele>449</ele>
        <time>2022-07-05T15:10:46Z</time>
      </trkpt>
      <trkpt lat="42.58537" lon="2.36277">
        <ele>448</ele>
        <time>2022-07-05T15:11:25Z</time>
      </trkpt>
      <trkpt lat="42.58604" lon="2.36361">
        <ele>442</ele>
        <time>2022-07-05T15:13:26Z</time>
      </trkpt>
      <trkpt lat="42.58621" lon="2.36376">
        <ele>443</ele>
        <time>2022-07-05T15:13:53Z</time>
      </trkpt>
      <trkpt lat="42.58649" lon="2.36392">
        <ele>442</ele>
        <time>2022-07-05T15:14:34Z</time>
      </trkpt>
      <trkpt lat="42.58672" lon="2.36411">
        <ele>441</ele>
        <time>2022-07-05T15:15:10Z</time>
      </trkpt>
      <trkpt lat="42.58678" lon="2.3642">
        <ele>441</ele>
        <time>2022-07-05T15:15:22Z</time>
      </trkpt>
      <trkpt lat="42.58725" lon="2.36465">
        <ele>443</ele>
        <time>2022-07-05T15:16:38Z</time>
      </trkpt>
      <trkpt lat="42.58743" lon="2.36507">
        <ele>441</ele>
        <time>2022-07-05T15:17:26Z</time>
      </trkpt>
      <trkpt lat="42.58751" lon="2.36509">
        <ele>441</ele>
        <time>2022-07-05T15:17:37Z</time>
      </trkpt>
      <trkpt lat="42.58759" lon="2.3652">
        <ele>446</ele>
        <time>2022-07-05T15:17:52Z</time>
      </trkpt>
      <trkpt lat="42.5877" lon="2.3656">
        <ele>451</ele>
        <time>2022-07-05T15:18:34Z</time>
      </trkpt>
      <trkpt lat="42.58785" lon="2.36585">
        <ele>460</ele>
        <time>2022-07-05T15:19:06Z</time>
      </trkpt>
      <trkpt lat="42.58795" lon="2.36597">
        <ele>464</ele>
        <time>2022-07-05T15:19:24Z</time>
      </trkpt>
      <trkpt lat="42.58749" lon="2.3662">
        <ele>438</ele>
        <time>2022-07-05T15:20:29Z</time>
      </trkpt>
      <trkpt lat="42.58733" lon="2.36634">
        <ele>440</ele>
        <time>2022-07-05T15:20:54Z</time>
      </trkpt>
      <trkpt lat="42.58719" lon="2.36639">
        <ele>441</ele>
        <time>2022-07-05T15:21:14Z</time>
      </trkpt>
      <trkpt lat="42.58702" lon="2.36658">
        <ele>443</ele>
        <time>2022-07-05T15:21:43Z</time>
      </trkpt>
      <trkpt lat="42.58697" lon="2.36682">
        <ele>443</ele>
        <time>2022-07-05T15:22:08Z</time>
      </trkpt>
      <trkpt lat="42.58709" lon="2.36771">
        <ele>440</ele>
        <time>2022-07-05T15:23:37Z</time>
      </trkpt>
      <trkpt lat="42.58708" lon="2.36795">
        <ele>439</ele>
        <time>2022-07-05T15:24:00Z</time>
      </trkpt>
      <trkpt lat="42.58721" lon="2.36859">
        <ele>436</ele>
        <time>2022-07-05T15:25:05Z</time>
      </trkpt>
      <trkpt lat="42.58718" lon="2.36884">
        <ele>436</ele>
        <time>2022-07-05T15:25:30Z</time>
      </trkpt>
      <trkpt lat="42.58721" lon="2.36955">
        <ele>435</ele>
        <time>2022-07-05T15:26:40Z</time>
      </trkpt>
      <trkpt lat="42.58704" lon="2.36968">
        <ele>437</ele>
        <time>2022-07-05T15:27:06Z</time>
      </trkpt>
      <trkpt lat="42.58698" lon="2.36984">
        <ele>437</ele>
        <time>2022-07-05T15:27:24Z</time>
      </trkpt>
      <trkpt lat="42.58688" lon="2.36991">
        <ele>438</ele>
        <time>2022-07-05T15:27:39Z</time>
      </trkpt>
      <trkpt lat="42.58671" lon="2.36986">
        <ele>439</ele>
        <time>2022-07-05T15:28:02Z</time>
      </trkpt>
      <trkpt lat="42.58656" lon="2.37">
        <ele>440</ele>
        <time>2022-07-05T15:28:26Z</time>
      </trkpt>
      <trkpt lat="42.58643" lon="2.37026">
        <ele>449</ele>
        <time>2022-07-05T15:28:57Z</time>
      </trkpt>
      <trkpt lat="42.58622" lon="2.3704">
        <ele>453</ele>
        <time>2022-07-05T15:29:28Z</time>
      </trkpt>
      <trkpt lat="42.58591" lon="2.37056">
        <ele>453</ele>
        <time>2022-07-05T15:30:13Z</time>
      </trkpt>
      <trkpt lat="42.58581" lon="2.37076">
        <ele>455</ele>
        <time>2022-07-05T15:30:36Z</time>
      </trkpt>
      <trkpt lat="42.58556" lon="2.3709">
        <ele>457</ele>
        <time>2022-07-05T15:31:13Z</time>
      </trkpt>
      <trkpt lat="42.58477" lon="2.37115">
        <ele>461</ele>
        <time>2022-07-05T15:33:01Z</time>
      </trkpt>
      <trkpt lat="42.5846" lon="2.37115">
        <ele>460</ele>
        <time>2022-07-05T15:33:23Z</time>
      </trkpt>
      <trkpt lat="42.58448" lon="2.37119">
        <ele>461</ele>
        <time>2022-07-05T15:33:40Z</time>
      </trkpt>
      <trkpt lat="42.58435" lon="2.37093">
        <ele>452</ele>
        <time>2022-07-05T15:34:11Z</time>
      </trkpt>
    </trkseg>
  </trk>
</gpx>